<?xml version="1.0" encoding="UTF-8" standalone="no" ?>
<gpx xmlns="http://www.topografix.com/GPX/1/1" xmlns:xsi="http://www.w3.org/2001/XMLSchema-instance" xsi:schemaLocation="http://www.topografix.com/GPX/1/1 http://www.topografix.com/GPX/1/1/gpx.xsd" version="1.1" creator="VisuGPX - https://www.visugpx.com">
  <metadata>
    <name>83 - L - Besse sur Issole</name>
    <desc><![CDATA[83 - L - Besse sur Issole - chapelle St Quinis]]></desc>
  </metadata>
  <trk>
    <name><![CDATA[Besse sur Issole St Quinis 2025-03-24-01]]></name>
    <trkseg>
      <trkpt lat="43.35032" lon="6.17837">
        <ele>262.8</ele>
        <time>2025-03-24T08:24:31Z</time>
      </trkpt>
      <trkpt lat="43.35032" lon="6.17838">
        <ele>266</ele>
        <time>2025-03-24T08:24:34Z</time>
      </trkpt>
      <trkpt lat="43.35041" lon="6.17842">
        <ele>272.9</ele>
        <time>2025-03-24T08:28:10Z</time>
      </trkpt>
      <trkpt lat="43.3505" lon="6.17845">
        <ele>272.7</ele>
        <time>2025-03-24T08:28:22Z</time>
      </trkpt>
      <trkpt lat="43.35058" lon="6.17838">
        <ele>272.8</ele>
        <time>2025-03-24T08:29:44Z</time>
      </trkpt>
      <trkpt lat="43.35064" lon="6.17829">
        <ele>272.7</ele>
        <time>2025-03-24T08:30:00Z</time>
      </trkpt>
      <trkpt lat="43.35073" lon="6.17823">
        <ele>272.8</ele>
        <time>2025-03-24T08:30:09Z</time>
      </trkpt>
      <trkpt lat="43.35082" lon="6.17822">
        <ele>272.3</ele>
        <time>2025-03-24T08:30:21Z</time>
      </trkpt>
      <trkpt lat="43.35092" lon="6.17817">
        <ele>272.4</ele>
        <time>2025-03-24T08:30:43Z</time>
      </trkpt>
      <trkpt lat="43.35098" lon="6.17807">
        <ele>272.6</ele>
        <time>2025-03-24T08:30:50Z</time>
      </trkpt>
      <trkpt lat="43.35102" lon="6.17795">
        <ele>272.3</ele>
        <time>2025-03-24T08:30:58Z</time>
      </trkpt>
      <trkpt lat="43.35108" lon="6.17786">
        <ele>272.3</ele>
        <time>2025-03-24T08:31:23Z</time>
      </trkpt>
      <trkpt lat="43.35105" lon="6.17774">
        <ele>272.3</ele>
        <time>2025-03-24T08:31:34Z</time>
      </trkpt>
      <trkpt lat="43.35107" lon="6.17762">
        <ele>271.7</ele>
        <time>2025-03-24T08:32:22Z</time>
      </trkpt>
      <trkpt lat="43.35098" lon="6.17759">
        <ele>271.6</ele>
        <time>2025-03-24T08:32:55Z</time>
      </trkpt>
      <trkpt lat="43.35092" lon="6.17748">
        <ele>271.1</ele>
        <time>2025-03-24T08:33:06Z</time>
      </trkpt>
      <trkpt lat="43.35089" lon="6.17736">
        <ele>271.8</ele>
        <time>2025-03-24T08:33:16Z</time>
      </trkpt>
      <trkpt lat="43.35083" lon="6.17726">
        <ele>271.6</ele>
        <time>2025-03-24T08:33:29Z</time>
      </trkpt>
      <trkpt lat="43.35076" lon="6.17718">
        <ele>272.1</ele>
        <time>2025-03-24T08:33:48Z</time>
      </trkpt>
      <trkpt lat="43.35075" lon="6.17705">
        <ele>272.1</ele>
        <time>2025-03-24T08:33:58Z</time>
      </trkpt>
      <trkpt lat="43.35076" lon="6.17692">
        <ele>271.9</ele>
        <time>2025-03-24T08:34:09Z</time>
      </trkpt>
      <trkpt lat="43.35077" lon="6.17679">
        <ele>271.5</ele>
        <time>2025-03-24T08:34:20Z</time>
      </trkpt>
      <trkpt lat="43.35075" lon="6.17666">
        <ele>271.4</ele>
        <time>2025-03-24T08:34:30Z</time>
      </trkpt>
      <trkpt lat="43.35069" lon="6.17655">
        <ele>271.5</ele>
        <time>2025-03-24T08:34:39Z</time>
      </trkpt>
      <trkpt lat="43.35062" lon="6.17646">
        <ele>271.5</ele>
        <time>2025-03-24T08:34:58Z</time>
      </trkpt>
      <trkpt lat="43.35056" lon="6.17637">
        <ele>271.2</ele>
        <time>2025-03-24T08:35:07Z</time>
      </trkpt>
      <trkpt lat="43.3505" lon="6.17627">
        <ele>271.3</ele>
        <time>2025-03-24T08:35:16Z</time>
      </trkpt>
      <trkpt lat="43.35045" lon="6.17617">
        <ele>271.4</ele>
        <time>2025-03-24T08:35:25Z</time>
      </trkpt>
      <trkpt lat="43.3504" lon="6.17605">
        <ele>271.4</ele>
        <time>2025-03-24T08:35:35Z</time>
      </trkpt>
      <trkpt lat="43.35036" lon="6.17593">
        <ele>271.4</ele>
        <time>2025-03-24T08:35:44Z</time>
      </trkpt>
      <trkpt lat="43.35035" lon="6.1758">
        <ele>271.4</ele>
        <time>2025-03-24T08:35:53Z</time>
      </trkpt>
      <trkpt lat="43.35031" lon="6.17568">
        <ele>271.6</ele>
        <time>2025-03-24T08:36:29Z</time>
      </trkpt>
      <trkpt lat="43.35029" lon="6.17555">
        <ele>271.7</ele>
        <time>2025-03-24T08:36:46Z</time>
      </trkpt>
      <trkpt lat="43.35031" lon="6.17543">
        <ele>272.2</ele>
        <time>2025-03-24T08:38:24Z</time>
      </trkpt>
      <trkpt lat="43.35032" lon="6.17529">
        <ele>271.8</ele>
        <time>2025-03-24T08:38:34Z</time>
      </trkpt>
      <trkpt lat="43.35034" lon="6.17516">
        <ele>271.1</ele>
        <time>2025-03-24T08:38:49Z</time>
      </trkpt>
      <trkpt lat="43.35035" lon="6.17503">
        <ele>271.1</ele>
        <time>2025-03-24T08:39:16Z</time>
      </trkpt>
      <trkpt lat="43.35039" lon="6.17491">
        <ele>271.3</ele>
        <time>2025-03-24T08:39:28Z</time>
      </trkpt>
      <trkpt lat="43.35045" lon="6.17481">
        <ele>271.3</ele>
        <time>2025-03-24T08:39:36Z</time>
      </trkpt>
      <trkpt lat="43.35052" lon="6.17471">
        <ele>271.3</ele>
        <time>2025-03-24T08:39:44Z</time>
      </trkpt>
      <trkpt lat="43.35057" lon="6.17461">
        <ele>271.5</ele>
        <time>2025-03-24T08:39:55Z</time>
      </trkpt>
      <trkpt lat="43.35062" lon="6.1745">
        <ele>271.4</ele>
        <time>2025-03-24T08:40:04Z</time>
      </trkpt>
      <trkpt lat="43.35064" lon="6.17436">
        <ele>271.9</ele>
        <time>2025-03-24T08:40:20Z</time>
      </trkpt>
      <trkpt lat="43.35062" lon="6.17423">
        <ele>272.9</ele>
        <time>2025-03-24T08:40:30Z</time>
      </trkpt>
      <trkpt lat="43.35061" lon="6.17411">
        <ele>274.2</ele>
        <time>2025-03-24T08:40:40Z</time>
      </trkpt>
      <trkpt lat="43.35058" lon="6.17399">
        <ele>275.6</ele>
        <time>2025-03-24T08:40:54Z</time>
      </trkpt>
      <trkpt lat="43.35049" lon="6.17396">
        <ele>275.9</ele>
        <time>2025-03-24T08:41:04Z</time>
      </trkpt>
      <trkpt lat="43.35042" lon="6.17387">
        <ele>276.5</ele>
        <time>2025-03-24T08:41:15Z</time>
      </trkpt>
      <trkpt lat="43.3505" lon="6.17378">
        <ele>276.2</ele>
        <time>2025-03-24T08:41:53Z</time>
      </trkpt>
      <trkpt lat="43.35059" lon="6.17375">
        <ele>275.9</ele>
        <time>2025-03-24T08:42:02Z</time>
      </trkpt>
      <trkpt lat="43.35067" lon="6.17368">
        <ele>276.5</ele>
        <time>2025-03-24T08:42:13Z</time>
      </trkpt>
      <trkpt lat="43.35075" lon="6.17362">
        <ele>275.9</ele>
        <time>2025-03-24T08:42:22Z</time>
      </trkpt>
      <trkpt lat="43.35083" lon="6.17357">
        <ele>275.8</ele>
        <time>2025-03-24T08:42:32Z</time>
      </trkpt>
      <trkpt lat="43.35093" lon="6.17353">
        <ele>276</ele>
        <time>2025-03-24T08:42:41Z</time>
      </trkpt>
      <trkpt lat="43.35102" lon="6.17351">
        <ele>276.1</ele>
        <time>2025-03-24T08:42:50Z</time>
      </trkpt>
      <trkpt lat="43.35112" lon="6.17349">
        <ele>276.7</ele>
        <time>2025-03-24T08:42:59Z</time>
      </trkpt>
      <trkpt lat="43.35121" lon="6.17349">
        <ele>277.3</ele>
        <time>2025-03-24T08:43:08Z</time>
      </trkpt>
      <trkpt lat="43.35131" lon="6.17348">
        <ele>277.9</ele>
        <time>2025-03-24T08:43:18Z</time>
      </trkpt>
      <trkpt lat="43.35141" lon="6.17349">
        <ele>278.4</ele>
        <time>2025-03-24T08:43:27Z</time>
      </trkpt>
      <trkpt lat="43.3515" lon="6.1735">
        <ele>278.8</ele>
        <time>2025-03-24T08:43:36Z</time>
      </trkpt>
      <trkpt lat="43.35159" lon="6.17351">
        <ele>279.3</ele>
        <time>2025-03-24T08:43:45Z</time>
      </trkpt>
      <trkpt lat="43.35169" lon="6.17351">
        <ele>279.8</ele>
        <time>2025-03-24T08:43:55Z</time>
      </trkpt>
      <trkpt lat="43.35178" lon="6.17352">
        <ele>280.2</ele>
        <time>2025-03-24T08:44:05Z</time>
      </trkpt>
      <trkpt lat="43.35187" lon="6.17353">
        <ele>280.5</ele>
        <time>2025-03-24T08:44:15Z</time>
      </trkpt>
      <trkpt lat="43.35196" lon="6.17349">
        <ele>281</ele>
        <time>2025-03-24T08:44:24Z</time>
      </trkpt>
      <trkpt lat="43.35204" lon="6.17342">
        <ele>281.5</ele>
        <time>2025-03-24T08:44:33Z</time>
      </trkpt>
      <trkpt lat="43.35211" lon="6.17335">
        <ele>282.6</ele>
        <time>2025-03-24T08:44:46Z</time>
      </trkpt>
      <trkpt lat="43.35216" lon="6.17324">
        <ele>282.3</ele>
        <time>2025-03-24T08:45:34Z</time>
      </trkpt>
      <trkpt lat="43.35219" lon="6.17311">
        <ele>282.5</ele>
        <time>2025-03-24T08:45:45Z</time>
      </trkpt>
      <trkpt lat="43.35221" lon="6.17298">
        <ele>283.1</ele>
        <time>2025-03-24T08:45:55Z</time>
      </trkpt>
      <trkpt lat="43.35223" lon="6.17285">
        <ele>283.6</ele>
        <time>2025-03-24T08:46:03Z</time>
      </trkpt>
      <trkpt lat="43.35225" lon="6.17273">
        <ele>283.9</ele>
        <time>2025-03-24T08:46:12Z</time>
      </trkpt>
      <trkpt lat="43.35229" lon="6.17261">
        <ele>283.8</ele>
        <time>2025-03-24T08:46:20Z</time>
      </trkpt>
      <trkpt lat="43.35232" lon="6.17249">
        <ele>283.9</ele>
        <time>2025-03-24T08:46:28Z</time>
      </trkpt>
      <trkpt lat="43.35235" lon="6.17236">
        <ele>284</ele>
        <time>2025-03-24T08:46:37Z</time>
      </trkpt>
      <trkpt lat="43.3524" lon="6.17224">
        <ele>283.9</ele>
        <time>2025-03-24T08:46:52Z</time>
      </trkpt>
      <trkpt lat="43.35246" lon="6.17213">
        <ele>284.2</ele>
        <time>2025-03-24T08:47:02Z</time>
      </trkpt>
      <trkpt lat="43.35252" lon="6.17204">
        <ele>284.3</ele>
        <time>2025-03-24T08:47:15Z</time>
      </trkpt>
      <trkpt lat="43.35257" lon="6.17193">
        <ele>284.6</ele>
        <time>2025-03-24T08:47:30Z</time>
      </trkpt>
      <trkpt lat="43.35265" lon="6.17185">
        <ele>284.8</ele>
        <time>2025-03-24T08:47:51Z</time>
      </trkpt>
      <trkpt lat="43.35273" lon="6.17178">
        <ele>285.2</ele>
        <time>2025-03-24T08:48:00Z</time>
      </trkpt>
      <trkpt lat="43.35281" lon="6.17169">
        <ele>285.2</ele>
        <time>2025-03-24T08:48:09Z</time>
      </trkpt>
      <trkpt lat="43.35288" lon="6.1716">
        <ele>284.1</ele>
        <time>2025-03-24T08:49:12Z</time>
      </trkpt>
      <trkpt lat="43.35293" lon="6.17149">
        <ele>285</ele>
        <time>2025-03-24T08:49:24Z</time>
      </trkpt>
      <trkpt lat="43.353" lon="6.1714">
        <ele>285.2</ele>
        <time>2025-03-24T08:49:34Z</time>
      </trkpt>
      <trkpt lat="43.35306" lon="6.1713">
        <ele>285.7</ele>
        <time>2025-03-24T08:49:47Z</time>
      </trkpt>
      <trkpt lat="43.35312" lon="6.1712">
        <ele>286.5</ele>
        <time>2025-03-24T08:50:05Z</time>
      </trkpt>
      <trkpt lat="43.35317" lon="6.1711">
        <ele>286.5</ele>
        <time>2025-03-24T08:50:28Z</time>
      </trkpt>
      <trkpt lat="43.35322" lon="6.17098">
        <ele>287.1</ele>
        <time>2025-03-24T08:50:40Z</time>
      </trkpt>
      <trkpt lat="43.35326" lon="6.17085">
        <ele>287.6</ele>
        <time>2025-03-24T08:50:49Z</time>
      </trkpt>
      <trkpt lat="43.35328" lon="6.17073">
        <ele>288.6</ele>
        <time>2025-03-24T08:51:12Z</time>
      </trkpt>
      <trkpt lat="43.35335" lon="6.17064">
        <ele>288.2</ele>
        <time>2025-03-24T08:51:33Z</time>
      </trkpt>
      <trkpt lat="43.35342" lon="6.17056">
        <ele>289</ele>
        <time>2025-03-24T08:51:46Z</time>
      </trkpt>
      <trkpt lat="43.3535" lon="6.17049">
        <ele>288.7</ele>
        <time>2025-03-24T08:51:56Z</time>
      </trkpt>
      <trkpt lat="43.35358" lon="6.17041">
        <ele>289.3</ele>
        <time>2025-03-24T08:52:05Z</time>
      </trkpt>
      <trkpt lat="43.35365" lon="6.17032">
        <ele>289.7</ele>
        <time>2025-03-24T08:52:14Z</time>
      </trkpt>
      <trkpt lat="43.35372" lon="6.17022">
        <ele>290.1</ele>
        <time>2025-03-24T08:52:23Z</time>
      </trkpt>
      <trkpt lat="43.35378" lon="6.17013">
        <ele>290.4</ele>
        <time>2025-03-24T08:52:32Z</time>
      </trkpt>
      <trkpt lat="43.35387" lon="6.17007">
        <ele>291.1</ele>
        <time>2025-03-24T08:52:42Z</time>
      </trkpt>
      <trkpt lat="43.35395" lon="6.17003">
        <ele>291.7</ele>
        <time>2025-03-24T08:52:51Z</time>
      </trkpt>
      <trkpt lat="43.35405" lon="6.17001">
        <ele>292.7</ele>
        <time>2025-03-24T08:53:02Z</time>
      </trkpt>
      <trkpt lat="43.35414" lon="6.17001">
        <ele>293.9</ele>
        <time>2025-03-24T08:53:14Z</time>
      </trkpt>
      <trkpt lat="43.35424" lon="6.17002">
        <ele>294.8</ele>
        <time>2025-03-24T08:53:25Z</time>
      </trkpt>
      <trkpt lat="43.35433" lon="6.17">
        <ele>296</ele>
        <time>2025-03-24T08:53:36Z</time>
      </trkpt>
      <trkpt lat="43.35442" lon="6.17002">
        <ele>297.4</ele>
        <time>2025-03-24T08:54:02Z</time>
      </trkpt>
      <trkpt lat="43.35451" lon="6.16999">
        <ele>295.5</ele>
        <time>2025-03-24T08:57:52Z</time>
      </trkpt>
      <trkpt lat="43.3546" lon="6.16993">
        <ele>296.4</ele>
        <time>2025-03-24T08:58:11Z</time>
      </trkpt>
      <trkpt lat="43.35469" lon="6.16989">
        <ele>298</ele>
        <time>2025-03-24T08:58:22Z</time>
      </trkpt>
      <trkpt lat="43.35477" lon="6.16986">
        <ele>299.6</ele>
        <time>2025-03-24T08:58:34Z</time>
      </trkpt>
      <trkpt lat="43.35486" lon="6.16982">
        <ele>301.2</ele>
        <time>2025-03-24T08:58:46Z</time>
      </trkpt>
      <trkpt lat="43.35495" lon="6.16979">
        <ele>302.9</ele>
        <time>2025-03-24T08:58:59Z</time>
      </trkpt>
      <trkpt lat="43.35504" lon="6.16975">
        <ele>304.8</ele>
        <time>2025-03-24T08:59:15Z</time>
      </trkpt>
      <trkpt lat="43.35512" lon="6.1697">
        <ele>306.2</ele>
        <time>2025-03-24T08:59:29Z</time>
      </trkpt>
      <trkpt lat="43.3552" lon="6.16963">
        <ele>307.7</ele>
        <time>2025-03-24T08:59:44Z</time>
      </trkpt>
      <trkpt lat="43.35529" lon="6.16959">
        <ele>309.3</ele>
        <time>2025-03-24T09:00:00Z</time>
      </trkpt>
      <trkpt lat="43.35537" lon="6.16953">
        <ele>309.7</ele>
        <time>2025-03-24T09:01:31Z</time>
      </trkpt>
      <trkpt lat="43.35546" lon="6.1695">
        <ele>312.2</ele>
        <time>2025-03-24T09:01:54Z</time>
      </trkpt>
      <trkpt lat="43.35554" lon="6.16944">
        <ele>312.8</ele>
        <time>2025-03-24T09:02:49Z</time>
      </trkpt>
      <trkpt lat="43.35563" lon="6.16941">
        <ele>313.5</ele>
        <time>2025-03-24T09:03:05Z</time>
      </trkpt>
      <trkpt lat="43.35572" lon="6.16935">
        <ele>314.9</ele>
        <time>2025-03-24T09:03:22Z</time>
      </trkpt>
      <trkpt lat="43.3558" lon="6.16928">
        <ele>316.3</ele>
        <time>2025-03-24T09:03:42Z</time>
      </trkpt>
      <trkpt lat="43.35588" lon="6.16923">
        <ele>318</ele>
        <time>2025-03-24T09:03:59Z</time>
      </trkpt>
      <trkpt lat="43.35595" lon="6.16915">
        <ele>319.5</ele>
        <time>2025-03-24T09:04:19Z</time>
      </trkpt>
      <trkpt lat="43.35599" lon="6.16904">
        <ele>320.8</ele>
        <time>2025-03-24T09:04:42Z</time>
      </trkpt>
      <trkpt lat="43.35603" lon="6.16892">
        <ele>322.5</ele>
        <time>2025-03-24T09:05:05Z</time>
      </trkpt>
      <trkpt lat="43.35607" lon="6.16881">
        <ele>323.2</ele>
        <time>2025-03-24T09:05:47Z</time>
      </trkpt>
      <trkpt lat="43.3561" lon="6.16869">
        <ele>324.3</ele>
        <time>2025-03-24T09:06:06Z</time>
      </trkpt>
      <trkpt lat="43.35614" lon="6.16857">
        <ele>325.5</ele>
        <time>2025-03-24T09:06:22Z</time>
      </trkpt>
      <trkpt lat="43.35619" lon="6.16846">
        <ele>326.9</ele>
        <time>2025-03-24T09:06:41Z</time>
      </trkpt>
      <trkpt lat="43.35628" lon="6.16843">
        <ele>328.5</ele>
        <time>2025-03-24T09:07:03Z</time>
      </trkpt>
      <trkpt lat="43.35634" lon="6.16852">
        <ele>330.2</ele>
        <time>2025-03-24T09:07:25Z</time>
      </trkpt>
      <trkpt lat="43.3564" lon="6.16861">
        <ele>331.9</ele>
        <time>2025-03-24T09:07:54Z</time>
      </trkpt>
      <trkpt lat="43.35645" lon="6.16872">
        <ele>332.6</ele>
        <time>2025-03-24T09:08:08Z</time>
      </trkpt>
      <trkpt lat="43.35649" lon="6.16883">
        <ele>333.1</ele>
        <time>2025-03-24T09:08:45Z</time>
      </trkpt>
      <trkpt lat="43.35655" lon="6.16893">
        <ele>333.6</ele>
        <time>2025-03-24T09:09:09Z</time>
      </trkpt>
      <trkpt lat="43.35661" lon="6.16902">
        <ele>334.3</ele>
        <time>2025-03-24T09:09:41Z</time>
      </trkpt>
      <trkpt lat="43.3567" lon="6.16906">
        <ele>335</ele>
        <time>2025-03-24T09:10:07Z</time>
      </trkpt>
      <trkpt lat="43.35679" lon="6.16903">
        <ele>335.6</ele>
        <time>2025-03-24T09:10:18Z</time>
      </trkpt>
      <trkpt lat="43.35688" lon="6.16904">
        <ele>336.4</ele>
        <time>2025-03-24T09:10:34Z</time>
      </trkpt>
      <trkpt lat="43.35697" lon="6.16902">
        <ele>336.9</ele>
        <time>2025-03-24T09:10:45Z</time>
      </trkpt>
      <trkpt lat="43.35707" lon="6.16902">
        <ele>337.2</ele>
        <time>2025-03-24T09:10:57Z</time>
      </trkpt>
      <trkpt lat="43.35716" lon="6.16902">
        <ele>338.3</ele>
        <time>2025-03-24T09:11:17Z</time>
      </trkpt>
      <trkpt lat="43.35725" lon="6.169">
        <ele>338.7</ele>
        <time>2025-03-24T09:11:33Z</time>
      </trkpt>
      <trkpt lat="43.35733" lon="6.16894">
        <ele>338.7</ele>
        <time>2025-03-24T09:11:44Z</time>
      </trkpt>
      <trkpt lat="43.35739" lon="6.16883">
        <ele>339.4</ele>
        <time>2025-03-24T09:11:57Z</time>
      </trkpt>
      <trkpt lat="43.35742" lon="6.16871">
        <ele>339.8</ele>
        <time>2025-03-24T09:12:13Z</time>
      </trkpt>
      <trkpt lat="43.35747" lon="6.1686">
        <ele>340.2</ele>
        <time>2025-03-24T09:12:25Z</time>
      </trkpt>
      <trkpt lat="43.35751" lon="6.16848">
        <ele>340.8</ele>
        <time>2025-03-24T09:12:37Z</time>
      </trkpt>
      <trkpt lat="43.35757" lon="6.16838">
        <ele>341.3</ele>
        <time>2025-03-24T09:12:47Z</time>
      </trkpt>
      <trkpt lat="43.35762" lon="6.16827">
        <ele>341.7</ele>
        <time>2025-03-24T09:12:57Z</time>
      </trkpt>
      <trkpt lat="43.35768" lon="6.16817">
        <ele>342.3</ele>
        <time>2025-03-24T09:13:10Z</time>
      </trkpt>
      <trkpt lat="43.35775" lon="6.16809">
        <ele>343.1</ele>
        <time>2025-03-24T09:13:47Z</time>
      </trkpt>
      <trkpt lat="43.35784" lon="6.16804">
        <ele>343.7</ele>
        <time>2025-03-24T09:14:40Z</time>
      </trkpt>
      <trkpt lat="43.35791" lon="6.16796">
        <ele>344.7</ele>
        <time>2025-03-24T09:14:51Z</time>
      </trkpt>
      <trkpt lat="43.358" lon="6.1679">
        <ele>346.2</ele>
        <time>2025-03-24T09:15:05Z</time>
      </trkpt>
      <trkpt lat="43.3581" lon="6.16788">
        <ele>347.1</ele>
        <time>2025-03-24T09:15:20Z</time>
      </trkpt>
      <trkpt lat="43.35819" lon="6.16789">
        <ele>347.6</ele>
        <time>2025-03-24T09:15:31Z</time>
      </trkpt>
      <trkpt lat="43.35829" lon="6.16787">
        <ele>348.5</ele>
        <time>2025-03-24T09:15:42Z</time>
      </trkpt>
      <trkpt lat="43.35838" lon="6.16783">
        <ele>350.5</ele>
        <time>2025-03-24T09:15:57Z</time>
      </trkpt>
      <trkpt lat="43.35846" lon="6.16777">
        <ele>350.7</ele>
        <time>2025-03-24T09:16:07Z</time>
      </trkpt>
      <trkpt lat="43.35855" lon="6.16772">
        <ele>351.1</ele>
        <time>2025-03-24T09:16:21Z</time>
      </trkpt>
      <trkpt lat="43.35864" lon="6.16766">
        <ele>351.4</ele>
        <time>2025-03-24T09:16:32Z</time>
      </trkpt>
      <trkpt lat="43.35871" lon="6.16759">
        <ele>351.9</ele>
        <time>2025-03-24T09:16:44Z</time>
      </trkpt>
      <trkpt lat="43.35878" lon="6.16751">
        <ele>352.4</ele>
        <time>2025-03-24T09:16:55Z</time>
      </trkpt>
      <trkpt lat="43.35886" lon="6.16744">
        <ele>353.3</ele>
        <time>2025-03-24T09:17:05Z</time>
      </trkpt>
      <trkpt lat="43.35891" lon="6.16733">
        <ele>354.4</ele>
        <time>2025-03-24T09:17:17Z</time>
      </trkpt>
      <trkpt lat="43.35897" lon="6.16723">
        <ele>355.7</ele>
        <time>2025-03-24T09:17:28Z</time>
      </trkpt>
      <trkpt lat="43.35905" lon="6.16716">
        <ele>356.3</ele>
        <time>2025-03-24T09:17:42Z</time>
      </trkpt>
      <trkpt lat="43.35913" lon="6.16709">
        <ele>357.3</ele>
        <time>2025-03-24T09:18:01Z</time>
      </trkpt>
      <trkpt lat="43.35921" lon="6.16703">
        <ele>357.9</ele>
        <time>2025-03-24T09:18:14Z</time>
      </trkpt>
      <trkpt lat="43.35929" lon="6.16696">
        <ele>358.9</ele>
        <time>2025-03-24T09:18:26Z</time>
      </trkpt>
      <trkpt lat="43.35937" lon="6.16688">
        <ele>360</ele>
        <time>2025-03-24T09:18:39Z</time>
      </trkpt>
      <trkpt lat="43.35945" lon="6.16681">
        <ele>360.9</ele>
        <time>2025-03-24T09:18:53Z</time>
      </trkpt>
      <trkpt lat="43.35952" lon="6.16672">
        <ele>362.1</ele>
        <time>2025-03-24T09:19:07Z</time>
      </trkpt>
      <trkpt lat="43.35958" lon="6.16663">
        <ele>363</ele>
        <time>2025-03-24T09:19:20Z</time>
      </trkpt>
      <trkpt lat="43.35965" lon="6.16655">
        <ele>364</ele>
        <time>2025-03-24T09:19:33Z</time>
      </trkpt>
      <trkpt lat="43.35972" lon="6.16645">
        <ele>365.1</ele>
        <time>2025-03-24T09:19:46Z</time>
      </trkpt>
      <trkpt lat="43.35978" lon="6.16635">
        <ele>366.1</ele>
        <time>2025-03-24T09:20:01Z</time>
      </trkpt>
      <trkpt lat="43.35985" lon="6.16627">
        <ele>367.1</ele>
        <time>2025-03-24T09:20:13Z</time>
      </trkpt>
      <trkpt lat="43.35991" lon="6.16617">
        <ele>367.9</ele>
        <time>2025-03-24T09:20:46Z</time>
      </trkpt>
      <trkpt lat="43.35994" lon="6.16604">
        <ele>368.6</ele>
        <time>2025-03-24T09:21:26Z</time>
      </trkpt>
      <trkpt lat="43.36002" lon="6.16597">
        <ele>369.6</ele>
        <time>2025-03-24T09:22:17Z</time>
      </trkpt>
      <trkpt lat="43.36001" lon="6.16585">
        <ele>369.3</ele>
        <time>2025-03-24T09:22:29Z</time>
      </trkpt>
      <trkpt lat="43.36003" lon="6.16572">
        <ele>370</ele>
        <time>2025-03-24T09:22:39Z</time>
      </trkpt>
      <trkpt lat="43.36007" lon="6.1656">
        <ele>370.3</ele>
        <time>2025-03-24T09:22:50Z</time>
      </trkpt>
      <trkpt lat="43.36011" lon="6.16549">
        <ele>370.8</ele>
        <time>2025-03-24T09:23:00Z</time>
      </trkpt>
      <trkpt lat="43.36012" lon="6.16536">
        <ele>371.2</ele>
        <time>2025-03-24T09:23:10Z</time>
      </trkpt>
      <trkpt lat="43.36016" lon="6.16523">
        <ele>372.1</ele>
        <time>2025-03-24T09:23:21Z</time>
      </trkpt>
      <trkpt lat="43.36018" lon="6.1651">
        <ele>373.1</ele>
        <time>2025-03-24T09:23:30Z</time>
      </trkpt>
      <trkpt lat="43.36022" lon="6.16499">
        <ele>374.3</ele>
        <time>2025-03-24T09:23:40Z</time>
      </trkpt>
      <trkpt lat="43.36022" lon="6.16486">
        <ele>375.6</ele>
        <time>2025-03-24T09:23:51Z</time>
      </trkpt>
      <trkpt lat="43.36024" lon="6.16473">
        <ele>377</ele>
        <time>2025-03-24T09:24:02Z</time>
      </trkpt>
      <trkpt lat="43.36027" lon="6.16462">
        <ele>378</ele>
        <time>2025-03-24T09:24:12Z</time>
      </trkpt>
      <trkpt lat="43.36031" lon="6.16449">
        <ele>379</ele>
        <time>2025-03-24T09:24:24Z</time>
      </trkpt>
      <trkpt lat="43.36031" lon="6.16436">
        <ele>380.4</ele>
        <time>2025-03-24T09:24:35Z</time>
      </trkpt>
      <trkpt lat="43.36034" lon="6.16423">
        <ele>381.4</ele>
        <time>2025-03-24T09:24:45Z</time>
      </trkpt>
      <trkpt lat="43.36036" lon="6.1641">
        <ele>382.3</ele>
        <time>2025-03-24T09:24:57Z</time>
      </trkpt>
      <trkpt lat="43.36036" lon="6.16397">
        <ele>383.2</ele>
        <time>2025-03-24T09:25:07Z</time>
      </trkpt>
      <trkpt lat="43.36037" lon="6.16385">
        <ele>384.2</ele>
        <time>2025-03-24T09:25:18Z</time>
      </trkpt>
      <trkpt lat="43.36037" lon="6.16372">
        <ele>385.4</ele>
        <time>2025-03-24T09:25:29Z</time>
      </trkpt>
      <trkpt lat="43.3604" lon="6.16359">
        <ele>386.6</ele>
        <time>2025-03-24T09:25:41Z</time>
      </trkpt>
      <trkpt lat="43.36042" lon="6.16347">
        <ele>387.8</ele>
        <time>2025-03-24T09:25:53Z</time>
      </trkpt>
      <trkpt lat="43.36041" lon="6.16334">
        <ele>388.8</ele>
        <time>2025-03-24T09:26:06Z</time>
      </trkpt>
      <trkpt lat="43.36042" lon="6.16321">
        <ele>389.4</ele>
        <time>2025-03-24T09:26:18Z</time>
      </trkpt>
      <trkpt lat="43.36041" lon="6.16309">
        <ele>390.4</ele>
        <time>2025-03-24T09:26:31Z</time>
      </trkpt>
      <trkpt lat="43.36043" lon="6.16296">
        <ele>391.4</ele>
        <time>2025-03-24T09:26:44Z</time>
      </trkpt>
      <trkpt lat="43.36045" lon="6.16284">
        <ele>392.3</ele>
        <time>2025-03-24T09:26:55Z</time>
      </trkpt>
      <trkpt lat="43.36048" lon="6.16272">
        <ele>393.1</ele>
        <time>2025-03-24T09:27:07Z</time>
      </trkpt>
      <trkpt lat="43.36051" lon="6.16259">
        <ele>394</ele>
        <time>2025-03-24T09:27:20Z</time>
      </trkpt>
      <trkpt lat="43.36054" lon="6.16247">
        <ele>394.8</ele>
        <time>2025-03-24T09:27:32Z</time>
      </trkpt>
      <trkpt lat="43.36056" lon="6.16234">
        <ele>395.5</ele>
        <time>2025-03-24T09:27:43Z</time>
      </trkpt>
      <trkpt lat="43.36059" lon="6.16222">
        <ele>396.6</ele>
        <time>2025-03-24T09:27:55Z</time>
      </trkpt>
      <trkpt lat="43.36065" lon="6.16211">
        <ele>397.6</ele>
        <time>2025-03-24T09:28:19Z</time>
      </trkpt>
      <trkpt lat="43.3606" lon="6.162">
        <ele>398.9</ele>
        <time>2025-03-24T09:30:14Z</time>
      </trkpt>
      <trkpt lat="43.36055" lon="6.16189">
        <ele>399.3</ele>
        <time>2025-03-24T09:30:33Z</time>
      </trkpt>
      <trkpt lat="43.36052" lon="6.16176">
        <ele>400.1</ele>
        <time>2025-03-24T09:30:44Z</time>
      </trkpt>
      <trkpt lat="43.36049" lon="6.16164">
        <ele>401.2</ele>
        <time>2025-03-24T09:30:57Z</time>
      </trkpt>
      <trkpt lat="43.36047" lon="6.16151">
        <ele>402.1</ele>
        <time>2025-03-24T09:31:10Z</time>
      </trkpt>
      <trkpt lat="43.36045" lon="6.16138">
        <ele>403</ele>
        <time>2025-03-24T09:31:23Z</time>
      </trkpt>
      <trkpt lat="43.36045" lon="6.16125">
        <ele>404.4</ele>
        <time>2025-03-24T09:31:37Z</time>
      </trkpt>
      <trkpt lat="43.36044" lon="6.16112">
        <ele>405.6</ele>
        <time>2025-03-24T09:31:52Z</time>
      </trkpt>
      <trkpt lat="43.36044" lon="6.16098">
        <ele>407.1</ele>
        <time>2025-03-24T09:32:08Z</time>
      </trkpt>
      <trkpt lat="43.36047" lon="6.16086">
        <ele>408.1</ele>
        <time>2025-03-24T09:32:25Z</time>
      </trkpt>
      <trkpt lat="43.36053" lon="6.16076">
        <ele>408.9</ele>
        <time>2025-03-24T09:34:31Z</time>
      </trkpt>
      <trkpt lat="43.36062" lon="6.16076">
        <ele>410.5</ele>
        <time>2025-03-24T09:34:48Z</time>
      </trkpt>
      <trkpt lat="43.36071" lon="6.1608">
        <ele>411.6</ele>
        <time>2025-03-24T09:35:00Z</time>
      </trkpt>
      <trkpt lat="43.36078" lon="6.16088">
        <ele>413</ele>
        <time>2025-03-24T09:35:27Z</time>
      </trkpt>
      <trkpt lat="43.36085" lon="6.16096">
        <ele>413.5</ele>
        <time>2025-03-24T09:35:41Z</time>
      </trkpt>
      <trkpt lat="43.36094" lon="6.16097">
        <ele>414.2</ele>
        <time>2025-03-24T09:35:56Z</time>
      </trkpt>
      <trkpt lat="43.36103" lon="6.16092">
        <ele>415.5</ele>
        <time>2025-03-24T09:36:16Z</time>
      </trkpt>
      <trkpt lat="43.36108" lon="6.16081">
        <ele>416.9</ele>
        <time>2025-03-24T09:36:36Z</time>
      </trkpt>
      <trkpt lat="43.36113" lon="6.1607">
        <ele>418.1</ele>
        <time>2025-03-24T09:36:59Z</time>
      </trkpt>
      <trkpt lat="43.36117" lon="6.1606">
        <ele>419.6</ele>
        <time>2025-03-24T09:37:12Z</time>
      </trkpt>
      <trkpt lat="43.36122" lon="6.16048">
        <ele>421</ele>
        <time>2025-03-24T09:37:23Z</time>
      </trkpt>
      <trkpt lat="43.36127" lon="6.16037">
        <ele>422</ele>
        <time>2025-03-24T09:37:32Z</time>
      </trkpt>
      <trkpt lat="43.36131" lon="6.16026">
        <ele>423.1</ele>
        <time>2025-03-24T09:37:45Z</time>
      </trkpt>
      <trkpt lat="43.36136" lon="6.16015">
        <ele>424.4</ele>
        <time>2025-03-24T09:37:56Z</time>
      </trkpt>
      <trkpt lat="43.3614" lon="6.16003">
        <ele>425.7</ele>
        <time>2025-03-24T09:38:08Z</time>
      </trkpt>
      <trkpt lat="43.36143" lon="6.1599">
        <ele>427.2</ele>
        <time>2025-03-24T09:38:21Z</time>
      </trkpt>
      <trkpt lat="43.36147" lon="6.15978">
        <ele>428.3</ele>
        <time>2025-03-24T09:38:34Z</time>
      </trkpt>
      <trkpt lat="43.36149" lon="6.15966">
        <ele>429</ele>
        <time>2025-03-24T09:38:44Z</time>
      </trkpt>
      <trkpt lat="43.36153" lon="6.15954">
        <ele>430</ele>
        <time>2025-03-24T09:38:54Z</time>
      </trkpt>
      <trkpt lat="43.36157" lon="6.15942">
        <ele>430.9</ele>
        <time>2025-03-24T09:39:04Z</time>
      </trkpt>
      <trkpt lat="43.36163" lon="6.15932">
        <ele>431.2</ele>
        <time>2025-03-24T09:39:12Z</time>
      </trkpt>
      <trkpt lat="43.36169" lon="6.15921">
        <ele>431.6</ele>
        <time>2025-03-24T09:39:23Z</time>
      </trkpt>
      <trkpt lat="43.36177" lon="6.15913">
        <ele>432.6</ele>
        <time>2025-03-24T09:39:34Z</time>
      </trkpt>
      <trkpt lat="43.36184" lon="6.15905">
        <ele>433.3</ele>
        <time>2025-03-24T09:39:45Z</time>
      </trkpt>
      <trkpt lat="43.36192" lon="6.15898">
        <ele>434.1</ele>
        <time>2025-03-24T09:39:54Z</time>
      </trkpt>
      <trkpt lat="43.36201" lon="6.15893">
        <ele>434.8</ele>
        <time>2025-03-24T09:40:05Z</time>
      </trkpt>
      <trkpt lat="43.36208" lon="6.15884">
        <ele>435.2</ele>
        <time>2025-03-24T09:40:16Z</time>
      </trkpt>
      <trkpt lat="43.36215" lon="6.15875">
        <ele>435.6</ele>
        <time>2025-03-24T09:40:26Z</time>
      </trkpt>
      <trkpt lat="43.36222" lon="6.15866">
        <ele>436.2</ele>
        <time>2025-03-24T09:40:37Z</time>
      </trkpt>
      <trkpt lat="43.36228" lon="6.15856">
        <ele>436.6</ele>
        <time>2025-03-24T09:40:48Z</time>
      </trkpt>
      <trkpt lat="43.36233" lon="6.15845">
        <ele>437.2</ele>
        <time>2025-03-24T09:41:10Z</time>
      </trkpt>
      <trkpt lat="43.36241" lon="6.1585">
        <ele>437</ele>
        <time>2025-03-24T09:41:52Z</time>
      </trkpt>
      <trkpt lat="43.36242" lon="6.15863">
        <ele>436.4</ele>
        <time>2025-03-24T09:42:26Z</time>
      </trkpt>
      <trkpt lat="43.36236" lon="6.15852">
        <ele>436.5</ele>
        <time>2025-03-24T09:42:48Z</time>
      </trkpt>
      <trkpt lat="43.36244" lon="6.15859">
        <ele>436.3</ele>
        <time>2025-03-24T09:47:08Z</time>
      </trkpt>
      <trkpt lat="43.36235" lon="6.15853">
        <ele>436.9</ele>
        <time>2025-03-24T09:47:42Z</time>
      </trkpt>
      <trkpt lat="43.36244" lon="6.15858">
        <ele>436.8</ele>
        <time>2025-03-24T09:48:58Z</time>
      </trkpt>
      <trkpt lat="43.36236" lon="6.15852">
        <ele>437.1</ele>
        <time>2025-03-24T09:50:08Z</time>
      </trkpt>
      <trkpt lat="43.36227" lon="6.15846">
        <ele>437.3</ele>
        <time>2025-03-24T09:50:31Z</time>
      </trkpt>
      <trkpt lat="43.36219" lon="6.15842">
        <ele>437.8</ele>
        <time>2025-03-24T09:51:02Z</time>
      </trkpt>
      <trkpt lat="43.36211" lon="6.15835">
        <ele>438.1</ele>
        <time>2025-03-24T09:51:13Z</time>
      </trkpt>
      <trkpt lat="43.36203" lon="6.15829">
        <ele>439</ele>
        <time>2025-03-24T09:51:43Z</time>
      </trkpt>
      <trkpt lat="43.36197" lon="6.15818">
        <ele>441</ele>
        <time>2025-03-24T09:52:12Z</time>
      </trkpt>
      <trkpt lat="43.36192" lon="6.15807">
        <ele>442.2</ele>
        <time>2025-03-24T09:52:33Z</time>
      </trkpt>
      <trkpt lat="43.36184" lon="6.15801">
        <ele>443.5</ele>
        <time>2025-03-24T09:52:51Z</time>
      </trkpt>
      <trkpt lat="43.36176" lon="6.15794">
        <ele>444.9</ele>
        <time>2025-03-24T09:53:06Z</time>
      </trkpt>
      <trkpt lat="43.3617" lon="6.15784">
        <ele>446.7</ele>
        <time>2025-03-24T09:53:20Z</time>
      </trkpt>
      <trkpt lat="43.36169" lon="6.15771">
        <ele>448.3</ele>
        <time>2025-03-24T09:53:35Z</time>
      </trkpt>
      <trkpt lat="43.36169" lon="6.15759">
        <ele>449.5</ele>
        <time>2025-03-24T09:53:49Z</time>
      </trkpt>
      <trkpt lat="43.36163" lon="6.15748">
        <ele>450.8</ele>
        <time>2025-03-24T09:54:02Z</time>
      </trkpt>
      <trkpt lat="43.36157" lon="6.15738">
        <ele>452.5</ele>
        <time>2025-03-24T09:54:18Z</time>
      </trkpt>
      <trkpt lat="43.36157" lon="6.15726">
        <ele>453.4</ele>
        <time>2025-03-24T09:54:37Z</time>
      </trkpt>
      <trkpt lat="43.36155" lon="6.15714">
        <ele>454.6</ele>
        <time>2025-03-24T09:54:56Z</time>
      </trkpt>
      <trkpt lat="43.36153" lon="6.15701">
        <ele>455.8</ele>
        <time>2025-03-24T09:55:17Z</time>
      </trkpt>
      <trkpt lat="43.36152" lon="6.15688">
        <ele>457.1</ele>
        <time>2025-03-24T09:55:34Z</time>
      </trkpt>
      <trkpt lat="43.36151" lon="6.15676">
        <ele>458.3</ele>
        <time>2025-03-24T09:55:49Z</time>
      </trkpt>
      <trkpt lat="43.36151" lon="6.15663">
        <ele>459.4</ele>
        <time>2025-03-24T09:56:03Z</time>
      </trkpt>
      <trkpt lat="43.36151" lon="6.1565">
        <ele>460.7</ele>
        <time>2025-03-24T09:56:18Z</time>
      </trkpt>
      <trkpt lat="43.3615" lon="6.15637">
        <ele>461.7</ele>
        <time>2025-03-24T09:56:31Z</time>
      </trkpt>
      <trkpt lat="43.36153" lon="6.15624">
        <ele>463.1</ele>
        <time>2025-03-24T09:56:46Z</time>
      </trkpt>
      <trkpt lat="43.36155" lon="6.15611">
        <ele>464.5</ele>
        <time>2025-03-24T09:57:01Z</time>
      </trkpt>
      <trkpt lat="43.3616" lon="6.156">
        <ele>465.5</ele>
        <time>2025-03-24T09:57:16Z</time>
      </trkpt>
      <trkpt lat="43.36162" lon="6.15588">
        <ele>466.6</ele>
        <time>2025-03-24T09:57:31Z</time>
      </trkpt>
      <trkpt lat="43.36163" lon="6.15575">
        <ele>467.5</ele>
        <time>2025-03-24T09:57:46Z</time>
      </trkpt>
      <trkpt lat="43.36166" lon="6.15563">
        <ele>469.1</ele>
        <time>2025-03-24T09:58:02Z</time>
      </trkpt>
      <trkpt lat="43.36173" lon="6.15555">
        <ele>469.9</ele>
        <time>2025-03-24T09:59:01Z</time>
      </trkpt>
      <trkpt lat="43.36172" lon="6.15542">
        <ele>470.3</ele>
        <time>2025-03-24T10:00:06Z</time>
      </trkpt>
      <trkpt lat="43.36177" lon="6.15532">
        <ele>471</ele>
        <time>2025-03-24T10:00:22Z</time>
      </trkpt>
      <trkpt lat="43.36178" lon="6.15519">
        <ele>472.1</ele>
        <time>2025-03-24T10:00:35Z</time>
      </trkpt>
      <trkpt lat="43.3618" lon="6.15507">
        <ele>472.9</ele>
        <time>2025-03-24T10:00:50Z</time>
      </trkpt>
      <trkpt lat="43.3618" lon="6.15494">
        <ele>474.4</ele>
        <time>2025-03-24T10:01:05Z</time>
      </trkpt>
      <trkpt lat="43.36183" lon="6.15482">
        <ele>475.7</ele>
        <time>2025-03-24T10:01:20Z</time>
      </trkpt>
      <trkpt lat="43.36185" lon="6.1547">
        <ele>477</ele>
        <time>2025-03-24T10:01:37Z</time>
      </trkpt>
      <trkpt lat="43.36187" lon="6.15457">
        <ele>478.1</ele>
        <time>2025-03-24T10:01:54Z</time>
      </trkpt>
      <trkpt lat="43.36187" lon="6.15445">
        <ele>479</ele>
        <time>2025-03-24T10:02:11Z</time>
      </trkpt>
      <trkpt lat="43.36188" lon="6.15432">
        <ele>480.8</ele>
        <time>2025-03-24T10:02:31Z</time>
      </trkpt>
      <trkpt lat="43.36186" lon="6.15419">
        <ele>482.7</ele>
        <time>2025-03-24T10:02:52Z</time>
      </trkpt>
      <trkpt lat="43.36185" lon="6.15407">
        <ele>483.5</ele>
        <time>2025-03-24T10:03:10Z</time>
      </trkpt>
      <trkpt lat="43.3618" lon="6.15396">
        <ele>484.7</ele>
        <time>2025-03-24T10:03:32Z</time>
      </trkpt>
      <trkpt lat="43.36175" lon="6.15385">
        <ele>485.3</ele>
        <time>2025-03-24T10:03:42Z</time>
      </trkpt>
      <trkpt lat="43.3617" lon="6.15375">
        <ele>486.7</ele>
        <time>2025-03-24T10:04:09Z</time>
      </trkpt>
      <trkpt lat="43.36164" lon="6.15365">
        <ele>487.7</ele>
        <time>2025-03-24T10:04:25Z</time>
      </trkpt>
      <trkpt lat="43.36158" lon="6.15356">
        <ele>489.5</ele>
        <time>2025-03-24T10:04:46Z</time>
      </trkpt>
      <trkpt lat="43.36152" lon="6.15347">
        <ele>490.6</ele>
        <time>2025-03-24T10:05:04Z</time>
      </trkpt>
      <trkpt lat="43.36145" lon="6.15339">
        <ele>492.2</ele>
        <time>2025-03-24T10:05:35Z</time>
      </trkpt>
      <trkpt lat="43.36141" lon="6.15328">
        <ele>493.7</ele>
        <time>2025-03-24T10:05:53Z</time>
      </trkpt>
      <trkpt lat="43.36139" lon="6.15315">
        <ele>494.4</ele>
        <time>2025-03-24T10:06:12Z</time>
      </trkpt>
      <trkpt lat="43.36134" lon="6.15304">
        <ele>496.5</ele>
        <time>2025-03-24T10:08:04Z</time>
      </trkpt>
      <trkpt lat="43.36131" lon="6.15292">
        <ele>496.8</ele>
        <time>2025-03-24T10:09:09Z</time>
      </trkpt>
      <trkpt lat="43.36131" lon="6.15279">
        <ele>498</ele>
        <time>2025-03-24T10:09:26Z</time>
      </trkpt>
      <trkpt lat="43.36134" lon="6.15267">
        <ele>499.3</ele>
        <time>2025-03-24T10:09:49Z</time>
      </trkpt>
      <trkpt lat="43.36133" lon="6.15254">
        <ele>500.6</ele>
        <time>2025-03-24T10:10:01Z</time>
      </trkpt>
      <trkpt lat="43.36138" lon="6.15244">
        <ele>502.2</ele>
        <time>2025-03-24T10:10:36Z</time>
      </trkpt>
      <trkpt lat="43.36139" lon="6.15231">
        <ele>503</ele>
        <time>2025-03-24T10:10:58Z</time>
      </trkpt>
      <trkpt lat="43.36146" lon="6.15222">
        <ele>504.1</ele>
        <time>2025-03-24T10:11:15Z</time>
      </trkpt>
      <trkpt lat="43.36152" lon="6.15212">
        <ele>505.2</ele>
        <time>2025-03-24T10:11:33Z</time>
      </trkpt>
      <trkpt lat="43.36158" lon="6.15203">
        <ele>506.4</ele>
        <time>2025-03-24T10:12:17Z</time>
      </trkpt>
      <trkpt lat="43.36161" lon="6.15191">
        <ele>508</ele>
        <time>2025-03-24T10:12:34Z</time>
      </trkpt>
      <trkpt lat="43.36165" lon="6.1518">
        <ele>510.4</ele>
        <time>2025-03-24T10:12:53Z</time>
      </trkpt>
      <trkpt lat="43.36172" lon="6.1517">
        <ele>512.6</ele>
        <time>2025-03-24T10:13:12Z</time>
      </trkpt>
      <trkpt lat="43.36178" lon="6.15161">
        <ele>514.1</ele>
        <time>2025-03-24T10:13:29Z</time>
      </trkpt>
      <trkpt lat="43.36186" lon="6.15156">
        <ele>516.3</ele>
        <time>2025-03-24T10:13:47Z</time>
      </trkpt>
      <trkpt lat="43.36193" lon="6.15147">
        <ele>517.9</ele>
        <time>2025-03-24T10:14:02Z</time>
      </trkpt>
      <trkpt lat="43.36199" lon="6.15138">
        <ele>519</ele>
        <time>2025-03-24T10:14:17Z</time>
      </trkpt>
      <trkpt lat="43.36206" lon="6.15129">
        <ele>521</ele>
        <time>2025-03-24T10:14:38Z</time>
      </trkpt>
      <trkpt lat="43.36212" lon="6.1512">
        <ele>522.5</ele>
        <time>2025-03-24T10:15:33Z</time>
      </trkpt>
      <trkpt lat="43.36205" lon="6.15114">
        <ele>526.3</ele>
        <time>2025-03-24T10:16:20Z</time>
      </trkpt>
      <trkpt lat="43.36196" lon="6.15117">
        <ele>528.3</ele>
        <time>2025-03-24T10:16:37Z</time>
      </trkpt>
      <trkpt lat="43.36194" lon="6.15104">
        <ele>531.9</ele>
        <time>2025-03-24T10:17:53Z</time>
      </trkpt>
      <trkpt lat="43.36201" lon="6.15095">
        <ele>534.3</ele>
        <time>2025-03-24T10:18:13Z</time>
      </trkpt>
      <trkpt lat="43.36208" lon="6.15088">
        <ele>536.9</ele>
        <time>2025-03-24T10:18:32Z</time>
      </trkpt>
      <trkpt lat="43.36209" lon="6.15075">
        <ele>539.2</ele>
        <time>2025-03-24T10:18:50Z</time>
      </trkpt>
      <trkpt lat="43.36205" lon="6.15063">
        <ele>543</ele>
        <time>2025-03-24T10:20:00Z</time>
      </trkpt>
      <trkpt lat="43.36196" lon="6.1506">
        <ele>544.7</ele>
        <time>2025-03-24T10:21:47Z</time>
      </trkpt>
      <trkpt lat="43.36187" lon="6.15059">
        <ele>547.8</ele>
        <time>2025-03-24T10:22:25Z</time>
      </trkpt>
      <trkpt lat="43.36178" lon="6.15055">
        <ele>549.8</ele>
        <time>2025-03-24T10:22:47Z</time>
      </trkpt>
      <trkpt lat="43.3617" lon="6.15061">
        <ele>551.5</ele>
        <time>2025-03-24T10:23:02Z</time>
      </trkpt>
      <trkpt lat="43.36161" lon="6.15062">
        <ele>552.9</ele>
        <time>2025-03-24T10:23:33Z</time>
      </trkpt>
      <trkpt lat="43.36153" lon="6.15056">
        <ele>554.9</ele>
        <time>2025-03-24T10:24:58Z</time>
      </trkpt>
      <trkpt lat="43.36145" lon="6.15052">
        <ele>557.5</ele>
        <time>2025-03-24T10:25:44Z</time>
      </trkpt>
      <trkpt lat="43.36137" lon="6.15044">
        <ele>559.1</ele>
        <time>2025-03-24T10:25:58Z</time>
      </trkpt>
      <trkpt lat="43.36129" lon="6.15039">
        <ele>560.9</ele>
        <time>2025-03-24T10:26:26Z</time>
      </trkpt>
      <trkpt lat="43.36121" lon="6.15032">
        <ele>562.4</ele>
        <time>2025-03-24T10:26:50Z</time>
      </trkpt>
      <trkpt lat="43.36112" lon="6.1503">
        <ele>561.7</ele>
        <time>2025-03-24T10:27:45Z</time>
      </trkpt>
      <trkpt lat="43.36118" lon="6.1504">
        <ele>558.1</ele>
        <time>2025-03-24T10:28:17Z</time>
      </trkpt>
      <trkpt lat="43.3611" lon="6.15032">
        <ele>558.2</ele>
        <time>2025-03-24T10:30:45Z</time>
      </trkpt>
      <trkpt lat="43.36115" lon="6.15021">
        <ele>563.4</ele>
        <time>2025-03-24T10:31:29Z</time>
      </trkpt>
      <trkpt lat="43.36122" lon="6.15013">
        <ele>566.9</ele>
        <time>2025-03-24T10:32:08Z</time>
      </trkpt>
      <trkpt lat="43.36117" lon="6.15001">
        <ele>571.6</ele>
        <time>2025-03-24T10:32:47Z</time>
      </trkpt>
      <trkpt lat="43.36126" lon="6.15008">
        <ele>570.9</ele>
        <time>2025-03-24T10:33:29Z</time>
      </trkpt>
      <trkpt lat="43.36135" lon="6.15011">
        <ele>570.2</ele>
        <time>2025-03-24T10:33:42Z</time>
      </trkpt>
      <trkpt lat="43.36144" lon="6.15015">
        <ele>573.2</ele>
        <time>2025-03-24T10:34:00Z</time>
      </trkpt>
      <trkpt lat="43.36153" lon="6.15013">
        <ele>576</ele>
        <time>2025-03-24T10:34:19Z</time>
      </trkpt>
      <trkpt lat="43.36162" lon="6.15017">
        <ele>579.3</ele>
        <time>2025-03-24T10:35:03Z</time>
      </trkpt>
      <trkpt lat="43.36169" lon="6.15009">
        <ele>581.4</ele>
        <time>2025-03-24T10:35:29Z</time>
      </trkpt>
      <trkpt lat="43.36168" lon="6.14995">
        <ele>580.7</ele>
        <time>2025-03-24T10:35:44Z</time>
      </trkpt>
      <trkpt lat="43.36166" lon="6.14983">
        <ele>580.4</ele>
        <time>2025-03-24T10:35:56Z</time>
      </trkpt>
      <trkpt lat="43.36163" lon="6.1497">
        <ele>580.3</ele>
        <time>2025-03-24T10:36:08Z</time>
      </trkpt>
      <trkpt lat="43.36159" lon="6.14959">
        <ele>581.1</ele>
        <time>2025-03-24T10:36:25Z</time>
      </trkpt>
      <trkpt lat="43.3615" lon="6.14961">
        <ele>581.5</ele>
        <time>2025-03-24T10:37:36Z</time>
      </trkpt>
      <trkpt lat="43.36141" lon="6.14955">
        <ele>582.7</ele>
        <time>2025-03-24T10:38:16Z</time>
      </trkpt>
      <trkpt lat="43.36134" lon="6.14947">
        <ele>584.2</ele>
        <time>2025-03-24T10:38:35Z</time>
      </trkpt>
      <trkpt lat="43.36136" lon="6.14935">
        <ele>584.6</ele>
        <time>2025-03-24T10:39:13Z</time>
      </trkpt>
      <trkpt lat="43.36127" lon="6.14935">
        <ele>585</ele>
        <time>2025-03-24T10:40:24Z</time>
      </trkpt>
      <trkpt lat="43.36129" lon="6.14923">
        <ele>585.4</ele>
        <time>2025-03-24T10:40:45Z</time>
      </trkpt>
      <trkpt lat="43.36128" lon="6.1491">
        <ele>585.3</ele>
        <time>2025-03-24T10:41:00Z</time>
      </trkpt>
      <trkpt lat="43.3612" lon="6.14902">
        <ele>586.6</ele>
        <time>2025-03-24T10:41:40Z</time>
      </trkpt>
      <trkpt lat="43.36085" lon="6.14923">
        <ele>586</ele>
        <time>2025-03-24T10:43:08Z</time>
      </trkpt>
      <trkpt lat="43.36112" lon="6.14904">
        <ele>586.5</ele>
        <time>2025-03-24T10:43:27Z</time>
      </trkpt>
      <trkpt lat="43.36122" lon="6.14902">
        <ele>586.5</ele>
        <time>2025-03-24T10:43:33Z</time>
      </trkpt>
      <trkpt lat="43.36127" lon="6.14891">
        <ele>586.4</ele>
        <time>2025-03-24T10:43:48Z</time>
      </trkpt>
      <trkpt lat="43.36129" lon="6.14878">
        <ele>586.4</ele>
        <time>2025-03-24T10:44:17Z</time>
      </trkpt>
      <trkpt lat="43.36123" lon="6.14889">
        <ele>586.7</ele>
        <time>2025-03-24T10:44:24Z</time>
      </trkpt>
      <trkpt lat="43.36119" lon="6.149">
        <ele>586.9</ele>
        <time>2025-03-24T10:44:33Z</time>
      </trkpt>
      <trkpt lat="43.3611" lon="6.149">
        <ele>588.3</ele>
        <time>2025-03-24T10:44:57Z</time>
      </trkpt>
      <trkpt lat="43.36104" lon="6.1491">
        <ele>590.7</ele>
        <time>2025-03-24T10:45:19Z</time>
      </trkpt>
      <trkpt lat="43.36095" lon="6.14912">
        <ele>592.3</ele>
        <time>2025-03-24T10:45:34Z</time>
      </trkpt>
      <trkpt lat="43.36087" lon="6.1492">
        <ele>593</ele>
        <time>2025-03-24T10:45:53Z</time>
      </trkpt>
      <trkpt lat="43.36094" lon="6.14911">
        <ele>591.5</ele>
        <time>2025-03-24T10:46:43Z</time>
      </trkpt>
      <trkpt lat="43.361" lon="6.14903">
        <ele>589.4</ele>
        <time>2025-03-24T10:47:11Z</time>
      </trkpt>
      <trkpt lat="43.36107" lon="6.14895">
        <ele>587.8</ele>
        <time>2025-03-24T11:02:53Z</time>
      </trkpt>
      <trkpt lat="43.36116" lon="6.149">
        <ele>587.4</ele>
        <time>2025-03-24T11:40:33Z</time>
      </trkpt>
      <trkpt lat="43.3612" lon="6.14888">
        <ele>585.9</ele>
        <time>2025-03-24T11:41:58Z</time>
      </trkpt>
      <trkpt lat="43.36119" lon="6.14875">
        <ele>585.4</ele>
        <time>2025-03-24T11:42:08Z</time>
      </trkpt>
      <trkpt lat="43.36121" lon="6.14862">
        <ele>585.1</ele>
        <time>2025-03-24T11:42:25Z</time>
      </trkpt>
      <trkpt lat="43.3612" lon="6.1485">
        <ele>584.6</ele>
        <time>2025-03-24T11:42:49Z</time>
      </trkpt>
      <trkpt lat="43.36129" lon="6.14847">
        <ele>582.4</ele>
        <time>2025-03-24T11:43:24Z</time>
      </trkpt>
      <trkpt lat="43.36137" lon="6.14841">
        <ele>580.1</ele>
        <time>2025-03-24T11:43:47Z</time>
      </trkpt>
      <trkpt lat="43.36145" lon="6.14834">
        <ele>577.3</ele>
        <time>2025-03-24T11:44:11Z</time>
      </trkpt>
      <trkpt lat="43.36154" lon="6.14833">
        <ele>575.5</ele>
        <time>2025-03-24T11:44:54Z</time>
      </trkpt>
      <trkpt lat="43.3616" lon="6.14823">
        <ele>573.8</ele>
        <time>2025-03-24T11:45:51Z</time>
      </trkpt>
      <trkpt lat="43.36161" lon="6.1481">
        <ele>571.7</ele>
        <time>2025-03-24T11:46:24Z</time>
      </trkpt>
      <trkpt lat="43.36162" lon="6.14797">
        <ele>570.7</ele>
        <time>2025-03-24T11:46:46Z</time>
      </trkpt>
      <trkpt lat="43.36165" lon="6.14785">
        <ele>569.5</ele>
        <time>2025-03-24T11:47:04Z</time>
      </trkpt>
      <trkpt lat="43.36172" lon="6.14776">
        <ele>568.2</ele>
        <time>2025-03-24T11:47:20Z</time>
      </trkpt>
      <trkpt lat="43.36176" lon="6.14765">
        <ele>566.8</ele>
        <time>2025-03-24T11:47:33Z</time>
      </trkpt>
      <trkpt lat="43.36177" lon="6.14752">
        <ele>565</ele>
        <time>2025-03-24T11:47:49Z</time>
      </trkpt>
      <trkpt lat="43.36178" lon="6.14739">
        <ele>566.1</ele>
        <time>2025-03-24T11:48:04Z</time>
      </trkpt>
      <trkpt lat="43.36183" lon="6.14728">
        <ele>564.6</ele>
        <time>2025-03-24T11:48:15Z</time>
      </trkpt>
      <trkpt lat="43.36188" lon="6.14717">
        <ele>563.3</ele>
        <time>2025-03-24T11:48:30Z</time>
      </trkpt>
      <trkpt lat="43.36194" lon="6.14708">
        <ele>561.1</ele>
        <time>2025-03-24T11:48:57Z</time>
      </trkpt>
      <trkpt lat="43.362" lon="6.14698">
        <ele>558.3</ele>
        <time>2025-03-24T11:49:49Z</time>
      </trkpt>
      <trkpt lat="43.36207" lon="6.14688">
        <ele>556.8</ele>
        <time>2025-03-24T11:50:08Z</time>
      </trkpt>
      <trkpt lat="43.36211" lon="6.14677">
        <ele>554.6</ele>
        <time>2025-03-24T11:50:27Z</time>
      </trkpt>
      <trkpt lat="43.36217" lon="6.14668">
        <ele>553.6</ele>
        <time>2025-03-24T11:50:42Z</time>
      </trkpt>
      <trkpt lat="43.3622" lon="6.14656">
        <ele>550.7</ele>
        <time>2025-03-24T11:51:08Z</time>
      </trkpt>
      <trkpt lat="43.36221" lon="6.14642">
        <ele>548.9</ele>
        <time>2025-03-24T11:51:34Z</time>
      </trkpt>
      <trkpt lat="43.36224" lon="6.14629">
        <ele>545.6</ele>
        <time>2025-03-24T11:52:27Z</time>
      </trkpt>
      <trkpt lat="43.36221" lon="6.14617">
        <ele>543.8</ele>
        <time>2025-03-24T11:52:54Z</time>
      </trkpt>
      <trkpt lat="43.36221" lon="6.14605">
        <ele>542.9</ele>
        <time>2025-03-24T11:53:09Z</time>
      </trkpt>
      <trkpt lat="43.36225" lon="6.14592">
        <ele>541.6</ele>
        <time>2025-03-24T11:53:20Z</time>
      </trkpt>
      <trkpt lat="43.36233" lon="6.14601">
        <ele>540.1</ele>
        <time>2025-03-24T11:54:01Z</time>
      </trkpt>
      <trkpt lat="43.36238" lon="6.14611">
        <ele>537.5</ele>
        <time>2025-03-24T11:54:20Z</time>
      </trkpt>
      <trkpt lat="43.36246" lon="6.14619">
        <ele>536.6</ele>
        <time>2025-03-24T11:54:35Z</time>
      </trkpt>
      <trkpt lat="43.36248" lon="6.14632">
        <ele>535.4</ele>
        <time>2025-03-24T11:54:50Z</time>
      </trkpt>
      <trkpt lat="43.36252" lon="6.14643">
        <ele>534.4</ele>
        <time>2025-03-24T11:55:06Z</time>
      </trkpt>
      <trkpt lat="43.36256" lon="6.14655">
        <ele>532.8</ele>
        <time>2025-03-24T11:55:23Z</time>
      </trkpt>
      <trkpt lat="43.36264" lon="6.14662">
        <ele>532.2</ele>
        <time>2025-03-24T11:55:56Z</time>
      </trkpt>
      <trkpt lat="43.36271" lon="6.1467">
        <ele>530.3</ele>
        <time>2025-03-24T11:58:28Z</time>
      </trkpt>
      <trkpt lat="43.36276" lon="6.14681">
        <ele>529.2</ele>
        <time>2025-03-24T11:58:42Z</time>
      </trkpt>
      <trkpt lat="43.36275" lon="6.14694">
        <ele>527.7</ele>
        <time>2025-03-24T11:58:54Z</time>
      </trkpt>
      <trkpt lat="43.36275" lon="6.14707">
        <ele>526.9</ele>
        <time>2025-03-24T11:59:05Z</time>
      </trkpt>
      <trkpt lat="43.36279" lon="6.14718">
        <ele>526</ele>
        <time>2025-03-24T11:59:25Z</time>
      </trkpt>
      <trkpt lat="43.36276" lon="6.1473">
        <ele>523</ele>
        <time>2025-03-24T12:00:12Z</time>
      </trkpt>
      <trkpt lat="43.36273" lon="6.14743">
        <ele>523.2</ele>
        <time>2025-03-24T12:00:22Z</time>
      </trkpt>
      <trkpt lat="43.36272" lon="6.14756">
        <ele>523.3</ele>
        <time>2025-03-24T12:00:34Z</time>
      </trkpt>
      <trkpt lat="43.36272" lon="6.14769">
        <ele>523.1</ele>
        <time>2025-03-24T12:00:44Z</time>
      </trkpt>
      <trkpt lat="43.36274" lon="6.14781">
        <ele>520.8</ele>
        <time>2025-03-24T12:01:02Z</time>
      </trkpt>
      <trkpt lat="43.3628" lon="6.14791">
        <ele>518.6</ele>
        <time>2025-03-24T12:01:20Z</time>
      </trkpt>
      <trkpt lat="43.36284" lon="6.14803">
        <ele>515.6</ele>
        <time>2025-03-24T12:01:39Z</time>
      </trkpt>
      <trkpt lat="43.3629" lon="6.14813">
        <ele>513.8</ele>
        <time>2025-03-24T12:02:05Z</time>
      </trkpt>
      <trkpt lat="43.36292" lon="6.14826">
        <ele>511</ele>
        <time>2025-03-24T12:02:20Z</time>
      </trkpt>
      <trkpt lat="43.36295" lon="6.14839">
        <ele>508.2</ele>
        <time>2025-03-24T12:02:41Z</time>
      </trkpt>
      <trkpt lat="43.36292" lon="6.14851">
        <ele>506.5</ele>
        <time>2025-03-24T12:02:55Z</time>
      </trkpt>
      <trkpt lat="43.36301" lon="6.14845">
        <ele>502.2</ele>
        <time>2025-03-24T12:03:52Z</time>
      </trkpt>
      <trkpt lat="43.36305" lon="6.14834">
        <ele>500.8</ele>
        <time>2025-03-24T12:04:14Z</time>
      </trkpt>
      <trkpt lat="43.3631" lon="6.14822">
        <ele>499.7</ele>
        <time>2025-03-24T12:04:29Z</time>
      </trkpt>
      <trkpt lat="43.36315" lon="6.14811">
        <ele>498.6</ele>
        <time>2025-03-24T12:04:42Z</time>
      </trkpt>
      <trkpt lat="43.36319" lon="6.148">
        <ele>496.8</ele>
        <time>2025-03-24T12:05:01Z</time>
      </trkpt>
      <trkpt lat="43.36325" lon="6.14791">
        <ele>495.3</ele>
        <time>2025-03-24T12:05:21Z</time>
      </trkpt>
      <trkpt lat="43.36329" lon="6.14779">
        <ele>494.5</ele>
        <time>2025-03-24T12:06:58Z</time>
      </trkpt>
      <trkpt lat="43.36336" lon="6.14771">
        <ele>492.5</ele>
        <time>2025-03-24T12:07:14Z</time>
      </trkpt>
      <trkpt lat="43.36341" lon="6.1476">
        <ele>490.5</ele>
        <time>2025-03-24T12:07:34Z</time>
      </trkpt>
      <trkpt lat="43.36344" lon="6.14748">
        <ele>488.5</ele>
        <time>2025-03-24T12:07:54Z</time>
      </trkpt>
      <trkpt lat="43.36346" lon="6.14736">
        <ele>486.1</ele>
        <time>2025-03-24T12:09:10Z</time>
      </trkpt>
      <trkpt lat="43.36347" lon="6.14723">
        <ele>483.8</ele>
        <time>2025-03-24T12:09:42Z</time>
      </trkpt>
      <trkpt lat="43.36351" lon="6.14712">
        <ele>482.3</ele>
        <time>2025-03-24T12:09:59Z</time>
      </trkpt>
      <trkpt lat="43.36352" lon="6.14699">
        <ele>480.1</ele>
        <time>2025-03-24T12:11:01Z</time>
      </trkpt>
      <trkpt lat="43.36357" lon="6.14688">
        <ele>478.2</ele>
        <time>2025-03-24T12:11:34Z</time>
      </trkpt>
      <trkpt lat="43.36363" lon="6.14679">
        <ele>475.7</ele>
        <time>2025-03-24T12:12:01Z</time>
      </trkpt>
      <trkpt lat="43.36365" lon="6.14666">
        <ele>474.5</ele>
        <time>2025-03-24T12:12:37Z</time>
      </trkpt>
      <trkpt lat="43.36365" lon="6.14653">
        <ele>472.7</ele>
        <time>2025-03-24T12:13:12Z</time>
      </trkpt>
      <trkpt lat="43.36364" lon="6.1464">
        <ele>470.2</ele>
        <time>2025-03-24T12:13:31Z</time>
      </trkpt>
      <trkpt lat="43.36364" lon="6.14627">
        <ele>469.4</ele>
        <time>2025-03-24T12:13:45Z</time>
      </trkpt>
      <trkpt lat="43.36365" lon="6.14615">
        <ele>467.9</ele>
        <time>2025-03-24T12:14:02Z</time>
      </trkpt>
      <trkpt lat="43.36367" lon="6.14602">
        <ele>465.6</ele>
        <time>2025-03-24T12:14:15Z</time>
      </trkpt>
      <trkpt lat="43.36369" lon="6.1459">
        <ele>464.2</ele>
        <time>2025-03-24T12:14:29Z</time>
      </trkpt>
      <trkpt lat="43.36377" lon="6.14596">
        <ele>460.8</ele>
        <time>2025-03-24T12:14:50Z</time>
      </trkpt>
      <trkpt lat="43.36385" lon="6.14603">
        <ele>459.9</ele>
        <time>2025-03-24T12:16:06Z</time>
      </trkpt>
      <trkpt lat="43.36391" lon="6.14613">
        <ele>458.5</ele>
        <time>2025-03-24T12:16:37Z</time>
      </trkpt>
      <trkpt lat="43.36393" lon="6.14625">
        <ele>457.3</ele>
        <time>2025-03-24T12:16:53Z</time>
      </trkpt>
      <trkpt lat="43.36396" lon="6.14637">
        <ele>456</ele>
        <time>2025-03-24T12:17:09Z</time>
      </trkpt>
      <trkpt lat="43.36401" lon="6.14648">
        <ele>454.3</ele>
        <time>2025-03-24T12:17:24Z</time>
      </trkpt>
      <trkpt lat="43.36406" lon="6.1466">
        <ele>452.5</ele>
        <time>2025-03-24T12:17:42Z</time>
      </trkpt>
      <trkpt lat="43.3641" lon="6.14671">
        <ele>451.4</ele>
        <time>2025-03-24T12:17:56Z</time>
      </trkpt>
      <trkpt lat="43.36414" lon="6.14682">
        <ele>449.8</ele>
        <time>2025-03-24T12:18:11Z</time>
      </trkpt>
      <trkpt lat="43.36419" lon="6.14693">
        <ele>448.9</ele>
        <time>2025-03-24T12:18:24Z</time>
      </trkpt>
      <trkpt lat="43.36423" lon="6.14704">
        <ele>446.9</ele>
        <time>2025-03-24T12:18:40Z</time>
      </trkpt>
      <trkpt lat="43.36426" lon="6.14716">
        <ele>445.2</ele>
        <time>2025-03-24T12:18:56Z</time>
      </trkpt>
      <trkpt lat="43.36432" lon="6.14726">
        <ele>443</ele>
        <time>2025-03-24T12:19:16Z</time>
      </trkpt>
      <trkpt lat="43.36438" lon="6.14735">
        <ele>441.5</ele>
        <time>2025-03-24T12:19:35Z</time>
      </trkpt>
      <trkpt lat="43.36445" lon="6.14743">
        <ele>439.1</ele>
        <time>2025-03-24T12:20:00Z</time>
      </trkpt>
      <trkpt lat="43.36451" lon="6.14753">
        <ele>437.4</ele>
        <time>2025-03-24T12:20:14Z</time>
      </trkpt>
      <trkpt lat="43.36458" lon="6.14762">
        <ele>436.1</ele>
        <time>2025-03-24T12:20:28Z</time>
      </trkpt>
      <trkpt lat="43.36465" lon="6.1477">
        <ele>434.5</ele>
        <time>2025-03-24T12:20:46Z</time>
      </trkpt>
      <trkpt lat="43.3647" lon="6.14781">
        <ele>433.6</ele>
        <time>2025-03-24T12:21:00Z</time>
      </trkpt>
      <trkpt lat="43.36474" lon="6.14792">
        <ele>432.3</ele>
        <time>2025-03-24T12:21:14Z</time>
      </trkpt>
      <trkpt lat="43.3648" lon="6.14802">
        <ele>431.4</ele>
        <time>2025-03-24T12:21:25Z</time>
      </trkpt>
      <trkpt lat="43.36488" lon="6.14809">
        <ele>430.3</ele>
        <time>2025-03-24T12:21:36Z</time>
      </trkpt>
      <trkpt lat="43.36495" lon="6.14817">
        <ele>429</ele>
        <time>2025-03-24T12:21:50Z</time>
      </trkpt>
      <trkpt lat="43.36501" lon="6.14826">
        <ele>427.2</ele>
        <time>2025-03-24T12:22:06Z</time>
      </trkpt>
      <trkpt lat="43.3651" lon="6.14832">
        <ele>425.3</ele>
        <time>2025-03-24T12:22:23Z</time>
      </trkpt>
      <trkpt lat="43.36516" lon="6.14842">
        <ele>423.7</ele>
        <time>2025-03-24T12:22:34Z</time>
      </trkpt>
      <trkpt lat="43.36522" lon="6.14851">
        <ele>422.4</ele>
        <time>2025-03-24T12:22:45Z</time>
      </trkpt>
      <trkpt lat="43.36531" lon="6.14853">
        <ele>419.9</ele>
        <time>2025-03-24T12:23:10Z</time>
      </trkpt>
      <trkpt lat="43.3654" lon="6.14855">
        <ele>419.2</ele>
        <time>2025-03-24T12:23:49Z</time>
      </trkpt>
      <trkpt lat="43.36545" lon="6.14866">
        <ele>419.5</ele>
        <time>2025-03-24T12:26:58Z</time>
      </trkpt>
      <trkpt lat="43.36538" lon="6.14876">
        <ele>420.3</ele>
        <time>2025-03-24T12:27:42Z</time>
      </trkpt>
      <trkpt lat="43.36539" lon="6.14889">
        <ele>420.5</ele>
        <time>2025-03-24T12:28:15Z</time>
      </trkpt>
      <trkpt lat="43.36543" lon="6.14899">
        <ele>420.8</ele>
        <time>2025-03-24T12:28:30Z</time>
      </trkpt>
      <trkpt lat="43.36548" lon="6.14911">
        <ele>421.2</ele>
        <time>2025-03-24T12:28:56Z</time>
      </trkpt>
      <trkpt lat="43.36548" lon="6.14924">
        <ele>421.1</ele>
        <time>2025-03-24T12:29:07Z</time>
      </trkpt>
      <trkpt lat="43.36547" lon="6.14937">
        <ele>421.3</ele>
        <time>2025-03-24T12:29:45Z</time>
      </trkpt>
      <trkpt lat="43.36548" lon="6.1495">
        <ele>421.3</ele>
        <time>2025-03-24T12:29:56Z</time>
      </trkpt>
      <trkpt lat="43.36551" lon="6.14963">
        <ele>421.5</ele>
        <time>2025-03-24T12:30:23Z</time>
      </trkpt>
      <trkpt lat="43.36552" lon="6.14976">
        <ele>421.1</ele>
        <time>2025-03-24T12:30:33Z</time>
      </trkpt>
      <trkpt lat="43.36553" lon="6.1499">
        <ele>421.2</ele>
        <time>2025-03-24T12:30:44Z</time>
      </trkpt>
      <trkpt lat="43.36552" lon="6.15003">
        <ele>421.7</ele>
        <time>2025-03-24T12:30:55Z</time>
      </trkpt>
      <trkpt lat="43.36553" lon="6.15016">
        <ele>421.5</ele>
        <time>2025-03-24T12:31:05Z</time>
      </trkpt>
      <trkpt lat="43.36555" lon="6.15029">
        <ele>421.1</ele>
        <time>2025-03-24T12:31:23Z</time>
      </trkpt>
      <trkpt lat="43.36555" lon="6.15041">
        <ele>421.7</ele>
        <time>2025-03-24T12:31:31Z</time>
      </trkpt>
      <trkpt lat="43.36556" lon="6.15054">
        <ele>421.3</ele>
        <time>2025-03-24T12:31:40Z</time>
      </trkpt>
      <trkpt lat="43.36556" lon="6.15068">
        <ele>421.5</ele>
        <time>2025-03-24T12:31:48Z</time>
      </trkpt>
      <trkpt lat="43.36554" lon="6.1508">
        <ele>421.9</ele>
        <time>2025-03-24T12:31:57Z</time>
      </trkpt>
      <trkpt lat="43.36554" lon="6.15093">
        <ele>421.3</ele>
        <time>2025-03-24T12:32:06Z</time>
      </trkpt>
      <trkpt lat="43.36553" lon="6.15106">
        <ele>422.3</ele>
        <time>2025-03-24T12:32:16Z</time>
      </trkpt>
      <trkpt lat="43.36553" lon="6.1512">
        <ele>422.5</ele>
        <time>2025-03-24T12:32:25Z</time>
      </trkpt>
      <trkpt lat="43.36554" lon="6.15132">
        <ele>422.5</ele>
        <time>2025-03-24T12:32:34Z</time>
      </trkpt>
      <trkpt lat="43.36555" lon="6.15145">
        <ele>422.6</ele>
        <time>2025-03-24T12:32:44Z</time>
      </trkpt>
      <trkpt lat="43.36555" lon="6.15158">
        <ele>423</ele>
        <time>2025-03-24T12:32:54Z</time>
      </trkpt>
      <trkpt lat="43.36554" lon="6.15171">
        <ele>423.8</ele>
        <time>2025-03-24T12:33:04Z</time>
      </trkpt>
      <trkpt lat="43.36555" lon="6.15183">
        <ele>424.5</ele>
        <time>2025-03-24T12:33:18Z</time>
      </trkpt>
      <trkpt lat="43.36554" lon="6.15196">
        <ele>426</ele>
        <time>2025-03-24T12:39:40Z</time>
      </trkpt>
      <trkpt lat="43.36554" lon="6.15209">
        <ele>426.1</ele>
        <time>2025-03-24T12:40:10Z</time>
      </trkpt>
      <trkpt lat="43.3655" lon="6.1522">
        <ele>426.4</ele>
        <time>2025-03-24T12:40:25Z</time>
      </trkpt>
      <trkpt lat="43.36542" lon="6.15226">
        <ele>427.2</ele>
        <time>2025-03-24T12:41:25Z</time>
      </trkpt>
      <trkpt lat="43.36534" lon="6.15232">
        <ele>428</ele>
        <time>2025-03-24T12:41:42Z</time>
      </trkpt>
      <trkpt lat="43.36526" lon="6.1524">
        <ele>428.7</ele>
        <time>2025-03-24T12:42:15Z</time>
      </trkpt>
      <trkpt lat="43.36518" lon="6.15246">
        <ele>429.1</ele>
        <time>2025-03-24T12:42:28Z</time>
      </trkpt>
      <trkpt lat="43.36511" lon="6.15254">
        <ele>430.1</ele>
        <time>2025-03-24T12:42:40Z</time>
      </trkpt>
      <trkpt lat="43.36506" lon="6.15265">
        <ele>431</ele>
        <time>2025-03-24T12:42:56Z</time>
      </trkpt>
      <trkpt lat="43.36498" lon="6.15271">
        <ele>431.1</ele>
        <time>2025-03-24T12:43:16Z</time>
      </trkpt>
      <trkpt lat="43.36493" lon="6.15282">
        <ele>431</ele>
        <time>2025-03-24T12:43:29Z</time>
      </trkpt>
      <trkpt lat="43.36489" lon="6.15293">
        <ele>431.1</ele>
        <time>2025-03-24T12:43:48Z</time>
      </trkpt>
      <trkpt lat="43.36486" lon="6.15304">
        <ele>431.4</ele>
        <time>2025-03-24T12:44:07Z</time>
      </trkpt>
      <trkpt lat="43.36483" lon="6.15317">
        <ele>432</ele>
        <time>2025-03-24T12:44:20Z</time>
      </trkpt>
      <trkpt lat="43.36481" lon="6.1533">
        <ele>432.7</ele>
        <time>2025-03-24T12:44:33Z</time>
      </trkpt>
      <trkpt lat="43.3648" lon="6.15343">
        <ele>433.5</ele>
        <time>2025-03-24T12:44:44Z</time>
      </trkpt>
      <trkpt lat="43.36472" lon="6.15351">
        <ele>434.2</ele>
        <time>2025-03-24T12:45:08Z</time>
      </trkpt>
      <trkpt lat="43.36466" lon="6.1536">
        <ele>433.9</ele>
        <time>2025-03-24T12:45:21Z</time>
      </trkpt>
      <trkpt lat="43.36457" lon="6.15363">
        <ele>433.9</ele>
        <time>2025-03-24T12:45:35Z</time>
      </trkpt>
      <trkpt lat="43.36448" lon="6.15369">
        <ele>433.8</ele>
        <time>2025-03-24T12:45:46Z</time>
      </trkpt>
      <trkpt lat="43.36439" lon="6.15374">
        <ele>434</ele>
        <time>2025-03-24T12:45:58Z</time>
      </trkpt>
      <trkpt lat="43.36431" lon="6.1538">
        <ele>433.6</ele>
        <time>2025-03-24T12:46:09Z</time>
      </trkpt>
      <trkpt lat="43.36423" lon="6.15388">
        <ele>433.6</ele>
        <time>2025-03-24T12:46:20Z</time>
      </trkpt>
      <trkpt lat="43.36417" lon="6.15397">
        <ele>433.9</ele>
        <time>2025-03-24T12:46:31Z</time>
      </trkpt>
      <trkpt lat="43.36412" lon="6.15407">
        <ele>434.4</ele>
        <time>2025-03-24T12:46:45Z</time>
      </trkpt>
      <trkpt lat="43.36407" lon="6.15419">
        <ele>435</ele>
        <time>2025-03-24T12:46:57Z</time>
      </trkpt>
      <trkpt lat="43.36402" lon="6.1543">
        <ele>434.6</ele>
        <time>2025-03-24T12:47:09Z</time>
      </trkpt>
      <trkpt lat="43.36397" lon="6.1544">
        <ele>434.1</ele>
        <time>2025-03-24T12:47:25Z</time>
      </trkpt>
      <trkpt lat="43.36391" lon="6.15451">
        <ele>434.1</ele>
        <time>2025-03-24T12:47:37Z</time>
      </trkpt>
      <trkpt lat="43.36384" lon="6.15459">
        <ele>433.9</ele>
        <time>2025-03-24T12:47:49Z</time>
      </trkpt>
      <trkpt lat="43.36375" lon="6.15465">
        <ele>433.7</ele>
        <time>2025-03-24T12:48:01Z</time>
      </trkpt>
      <trkpt lat="43.36367" lon="6.15471">
        <ele>433.5</ele>
        <time>2025-03-24T12:48:13Z</time>
      </trkpt>
      <trkpt lat="43.36358" lon="6.15475">
        <ele>433</ele>
        <time>2025-03-24T12:48:26Z</time>
      </trkpt>
      <trkpt lat="43.36348" lon="6.15481">
        <ele>432.5</ele>
        <time>2025-03-24T12:48:38Z</time>
      </trkpt>
      <trkpt lat="43.36341" lon="6.15488">
        <ele>432.2</ele>
        <time>2025-03-24T12:48:55Z</time>
      </trkpt>
      <trkpt lat="43.36333" lon="6.15494">
        <ele>432.4</ele>
        <time>2025-03-24T12:49:09Z</time>
      </trkpt>
      <trkpt lat="43.36324" lon="6.15501">
        <ele>431.3</ele>
        <time>2025-03-24T12:49:20Z</time>
      </trkpt>
      <trkpt lat="43.36317" lon="6.15508">
        <ele>432.3</ele>
        <time>2025-03-24T12:49:31Z</time>
      </trkpt>
      <trkpt lat="43.36311" lon="6.15518">
        <ele>432.4</ele>
        <time>2025-03-24T12:49:41Z</time>
      </trkpt>
      <trkpt lat="43.36305" lon="6.15527">
        <ele>432.7</ele>
        <time>2025-03-24T12:49:54Z</time>
      </trkpt>
      <trkpt lat="43.36296" lon="6.15531">
        <ele>432.3</ele>
        <time>2025-03-24T12:50:25Z</time>
      </trkpt>
      <trkpt lat="43.36291" lon="6.15543">
        <ele>432.4</ele>
        <time>2025-03-24T12:50:37Z</time>
      </trkpt>
      <trkpt lat="43.36287" lon="6.15554">
        <ele>432.9</ele>
        <time>2025-03-24T12:50:52Z</time>
      </trkpt>
      <trkpt lat="43.36288" lon="6.15567">
        <ele>433.1</ele>
        <time>2025-03-24T12:51:03Z</time>
      </trkpt>
      <trkpt lat="43.36288" lon="6.1558">
        <ele>432.9</ele>
        <time>2025-03-24T12:51:12Z</time>
      </trkpt>
      <trkpt lat="43.36291" lon="6.15591">
        <ele>433.6</ele>
        <time>2025-03-24T12:51:21Z</time>
      </trkpt>
      <trkpt lat="43.36294" lon="6.15604">
        <ele>434.1</ele>
        <time>2025-03-24T12:51:31Z</time>
      </trkpt>
      <trkpt lat="43.36295" lon="6.15617">
        <ele>434.7</ele>
        <time>2025-03-24T12:51:41Z</time>
      </trkpt>
      <trkpt lat="43.36295" lon="6.15629">
        <ele>435.2</ele>
        <time>2025-03-24T12:51:51Z</time>
      </trkpt>
      <trkpt lat="43.36295" lon="6.15642">
        <ele>434.6</ele>
        <time>2025-03-24T12:52:02Z</time>
      </trkpt>
      <trkpt lat="43.36296" lon="6.15654">
        <ele>435.8</ele>
        <time>2025-03-24T12:52:56Z</time>
      </trkpt>
      <trkpt lat="43.36289" lon="6.15662">
        <ele>435.6</ele>
        <time>2025-03-24T12:53:19Z</time>
      </trkpt>
      <trkpt lat="43.36283" lon="6.15673">
        <ele>435.9</ele>
        <time>2025-03-24T12:53:40Z</time>
      </trkpt>
      <trkpt lat="43.36275" lon="6.15679">
        <ele>435.5</ele>
        <time>2025-03-24T12:53:55Z</time>
      </trkpt>
      <trkpt lat="43.36267" lon="6.15686">
        <ele>435.3</ele>
        <time>2025-03-24T12:54:06Z</time>
      </trkpt>
      <trkpt lat="43.36258" lon="6.15691">
        <ele>435.2</ele>
        <time>2025-03-24T12:54:19Z</time>
      </trkpt>
      <trkpt lat="43.36253" lon="6.15702">
        <ele>434.4</ele>
        <time>2025-03-24T12:54:31Z</time>
      </trkpt>
      <trkpt lat="43.3625" lon="6.15714">
        <ele>435.4</ele>
        <time>2025-03-24T12:54:41Z</time>
      </trkpt>
      <trkpt lat="43.36251" lon="6.15726">
        <ele>435.5</ele>
        <time>2025-03-24T12:54:51Z</time>
      </trkpt>
      <trkpt lat="43.36254" lon="6.15738">
        <ele>436.1</ele>
        <time>2025-03-24T12:55:01Z</time>
      </trkpt>
      <trkpt lat="43.36254" lon="6.15751">
        <ele>436.8</ele>
        <time>2025-03-24T12:55:12Z</time>
      </trkpt>
      <trkpt lat="43.36255" lon="6.15764">
        <ele>437</ele>
        <time>2025-03-24T12:55:23Z</time>
      </trkpt>
      <trkpt lat="43.36254" lon="6.15777">
        <ele>437.6</ele>
        <time>2025-03-24T12:55:35Z</time>
      </trkpt>
      <trkpt lat="43.36253" lon="6.1579">
        <ele>438.1</ele>
        <time>2025-03-24T12:55:48Z</time>
      </trkpt>
      <trkpt lat="43.36251" lon="6.15803">
        <ele>438.6</ele>
        <time>2025-03-24T12:56:00Z</time>
      </trkpt>
      <trkpt lat="43.36249" lon="6.15815">
        <ele>439.2</ele>
        <time>2025-03-24T12:56:12Z</time>
      </trkpt>
      <trkpt lat="43.36244" lon="6.15826">
        <ele>439.9</ele>
        <time>2025-03-24T12:56:42Z</time>
      </trkpt>
      <trkpt lat="43.36239" lon="6.15837">
        <ele>440</ele>
        <time>2025-03-24T12:56:55Z</time>
      </trkpt>
      <trkpt lat="43.36234" lon="6.15847">
        <ele>441</ele>
        <time>2025-03-24T12:59:09Z</time>
      </trkpt>
      <trkpt lat="43.36243" lon="6.15847">
        <ele>440.7</ele>
        <time>2025-03-24T13:02:27Z</time>
      </trkpt>
      <trkpt lat="43.36237" lon="6.15856">
        <ele>440.9</ele>
        <time>2025-03-24T13:04:22Z</time>
      </trkpt>
      <trkpt lat="43.36231" lon="6.15866">
        <ele>440.5</ele>
        <time>2025-03-24T13:04:51Z</time>
      </trkpt>
      <trkpt lat="43.36225" lon="6.15875">
        <ele>440.2</ele>
        <time>2025-03-24T13:05:05Z</time>
      </trkpt>
      <trkpt lat="43.36218" lon="6.15884">
        <ele>439.9</ele>
        <time>2025-03-24T13:05:18Z</time>
      </trkpt>
      <trkpt lat="43.36219" lon="6.15896">
        <ele>439.5</ele>
        <time>2025-03-24T13:05:30Z</time>
      </trkpt>
      <trkpt lat="43.3621" lon="6.15891">
        <ele>439.2</ele>
        <time>2025-03-24T13:05:45Z</time>
      </trkpt>
      <trkpt lat="43.36203" lon="6.15898">
        <ele>438.9</ele>
        <time>2025-03-24T13:06:03Z</time>
      </trkpt>
      <trkpt lat="43.36194" lon="6.15902">
        <ele>438.4</ele>
        <time>2025-03-24T13:06:20Z</time>
      </trkpt>
      <trkpt lat="43.36187" lon="6.1591">
        <ele>437.8</ele>
        <time>2025-03-24T13:06:43Z</time>
      </trkpt>
      <trkpt lat="43.36179" lon="6.15917">
        <ele>436.6</ele>
        <time>2025-03-24T13:06:58Z</time>
      </trkpt>
      <trkpt lat="43.36171" lon="6.15924">
        <ele>436</ele>
        <time>2025-03-24T13:07:10Z</time>
      </trkpt>
      <trkpt lat="43.36165" lon="6.15932">
        <ele>435.2</ele>
        <time>2025-03-24T13:07:21Z</time>
      </trkpt>
      <trkpt lat="43.36158" lon="6.15942">
        <ele>434.5</ele>
        <time>2025-03-24T13:07:49Z</time>
      </trkpt>
      <trkpt lat="43.36155" lon="6.15953">
        <ele>434.1</ele>
        <time>2025-03-24T13:08:00Z</time>
      </trkpt>
      <trkpt lat="43.3615" lon="6.15964">
        <ele>433.4</ele>
        <time>2025-03-24T13:08:09Z</time>
      </trkpt>
      <trkpt lat="43.36147" lon="6.15976">
        <ele>432.5</ele>
        <time>2025-03-24T13:08:18Z</time>
      </trkpt>
      <trkpt lat="43.36143" lon="6.15987">
        <ele>431.6</ele>
        <time>2025-03-24T13:08:34Z</time>
      </trkpt>
      <trkpt lat="43.3614" lon="6.16">
        <ele>430.9</ele>
        <time>2025-03-24T13:08:43Z</time>
      </trkpt>
      <trkpt lat="43.36137" lon="6.16012">
        <ele>429.7</ele>
        <time>2025-03-24T13:08:53Z</time>
      </trkpt>
      <trkpt lat="43.36134" lon="6.16024">
        <ele>428.1</ele>
        <time>2025-03-24T13:09:04Z</time>
      </trkpt>
      <trkpt lat="43.3613" lon="6.16036">
        <ele>426.4</ele>
        <time>2025-03-24T13:09:16Z</time>
      </trkpt>
      <trkpt lat="43.36125" lon="6.16047">
        <ele>425.3</ele>
        <time>2025-03-24T13:09:25Z</time>
      </trkpt>
      <trkpt lat="43.36122" lon="6.1606">
        <ele>424.2</ele>
        <time>2025-03-24T13:09:37Z</time>
      </trkpt>
      <trkpt lat="43.36118" lon="6.16071">
        <ele>422.9</ele>
        <time>2025-03-24T13:09:49Z</time>
      </trkpt>
      <trkpt lat="43.36113" lon="6.16082">
        <ele>421.6</ele>
        <time>2025-03-24T13:10:03Z</time>
      </trkpt>
      <trkpt lat="43.36106" lon="6.1609">
        <ele>420.2</ele>
        <time>2025-03-24T13:10:18Z</time>
      </trkpt>
      <trkpt lat="43.36097" lon="6.16095">
        <ele>418.8</ele>
        <time>2025-03-24T13:10:28Z</time>
      </trkpt>
      <trkpt lat="43.36088" lon="6.16096">
        <ele>418.3</ele>
        <time>2025-03-24T13:11:10Z</time>
      </trkpt>
      <trkpt lat="43.36079" lon="6.16091">
        <ele>417.3</ele>
        <time>2025-03-24T13:11:26Z</time>
      </trkpt>
      <trkpt lat="43.36073" lon="6.16082">
        <ele>416.2</ele>
        <time>2025-03-24T13:11:44Z</time>
      </trkpt>
      <trkpt lat="43.36064" lon="6.16076">
        <ele>415.2</ele>
        <time>2025-03-24T13:12:07Z</time>
      </trkpt>
      <trkpt lat="43.36055" lon="6.16076">
        <ele>413.9</ele>
        <time>2025-03-24T13:12:17Z</time>
      </trkpt>
      <trkpt lat="43.3605" lon="6.16087">
        <ele>412.2</ele>
        <time>2025-03-24T13:12:28Z</time>
      </trkpt>
      <trkpt lat="43.36049" lon="6.16101">
        <ele>411.4</ele>
        <time>2025-03-24T13:12:45Z</time>
      </trkpt>
      <trkpt lat="43.36049" lon="6.16114">
        <ele>409.4</ele>
        <time>2025-03-24T13:13:01Z</time>
      </trkpt>
      <trkpt lat="43.36049" lon="6.16126">
        <ele>407.7</ele>
        <time>2025-03-24T13:13:17Z</time>
      </trkpt>
      <trkpt lat="43.36049" lon="6.16139">
        <ele>406</ele>
        <time>2025-03-24T13:13:31Z</time>
      </trkpt>
      <trkpt lat="43.36052" lon="6.16151">
        <ele>405.1</ele>
        <time>2025-03-24T13:13:44Z</time>
      </trkpt>
      <trkpt lat="43.36056" lon="6.16163">
        <ele>404.2</ele>
        <time>2025-03-24T13:13:58Z</time>
      </trkpt>
      <trkpt lat="43.36057" lon="6.16175">
        <ele>403.1</ele>
        <time>2025-03-24T13:14:22Z</time>
      </trkpt>
      <trkpt lat="43.36058" lon="6.16188">
        <ele>402.4</ele>
        <time>2025-03-24T13:14:44Z</time>
      </trkpt>
      <trkpt lat="43.36058" lon="6.16201">
        <ele>402.1</ele>
        <time>2025-03-24T13:15:00Z</time>
      </trkpt>
      <trkpt lat="43.36057" lon="6.16213">
        <ele>401.2</ele>
        <time>2025-03-24T13:15:34Z</time>
      </trkpt>
      <trkpt lat="43.36058" lon="6.16226">
        <ele>400.2</ele>
        <time>2025-03-24T13:15:55Z</time>
      </trkpt>
      <trkpt lat="43.36054" lon="6.16237">
        <ele>399.3</ele>
        <time>2025-03-24T13:16:21Z</time>
      </trkpt>
      <trkpt lat="43.3605" lon="6.16249">
        <ele>398.5</ele>
        <time>2025-03-24T13:16:39Z</time>
      </trkpt>
      <trkpt lat="43.36047" lon="6.16262">
        <ele>397.8</ele>
        <time>2025-03-24T13:16:54Z</time>
      </trkpt>
      <trkpt lat="43.36044" lon="6.16273">
        <ele>397</ele>
        <time>2025-03-24T13:17:09Z</time>
      </trkpt>
      <trkpt lat="43.3604" lon="6.16286">
        <ele>396.3</ele>
        <time>2025-03-24T13:17:24Z</time>
      </trkpt>
      <trkpt lat="43.36038" lon="6.16298">
        <ele>395.2</ele>
        <time>2025-03-24T13:17:38Z</time>
      </trkpt>
      <trkpt lat="43.36036" lon="6.16311">
        <ele>393.9</ele>
        <time>2025-03-24T13:17:55Z</time>
      </trkpt>
      <trkpt lat="43.36035" lon="6.16324">
        <ele>393.1</ele>
        <time>2025-03-24T13:18:10Z</time>
      </trkpt>
      <trkpt lat="43.36035" lon="6.16336">
        <ele>392.3</ele>
        <time>2025-03-24T13:18:22Z</time>
      </trkpt>
      <trkpt lat="43.36032" lon="6.16348">
        <ele>391.8</ele>
        <time>2025-03-24T13:18:37Z</time>
      </trkpt>
      <trkpt lat="43.36031" lon="6.16361">
        <ele>390.7</ele>
        <time>2025-03-24T13:18:53Z</time>
      </trkpt>
      <trkpt lat="43.36029" lon="6.16373">
        <ele>390.2</ele>
        <time>2025-03-24T13:19:11Z</time>
      </trkpt>
      <trkpt lat="43.36027" lon="6.16386">
        <ele>389.4</ele>
        <time>2025-03-24T13:19:34Z</time>
      </trkpt>
      <trkpt lat="43.36026" lon="6.16398">
        <ele>387.6</ele>
        <time>2025-03-24T13:19:54Z</time>
      </trkpt>
      <trkpt lat="43.36025" lon="6.16411">
        <ele>386.6</ele>
        <time>2025-03-24T13:20:08Z</time>
      </trkpt>
      <trkpt lat="43.36024" lon="6.16424">
        <ele>385.7</ele>
        <time>2025-03-24T13:20:58Z</time>
      </trkpt>
      <trkpt lat="43.36022" lon="6.16436">
        <ele>385</ele>
        <time>2025-03-24T13:21:28Z</time>
      </trkpt>
      <trkpt lat="43.36021" lon="6.16449">
        <ele>382.7</ele>
        <time>2025-03-24T13:21:58Z</time>
      </trkpt>
      <trkpt lat="43.36019" lon="6.16461">
        <ele>382.5</ele>
        <time>2025-03-24T13:22:17Z</time>
      </trkpt>
      <trkpt lat="43.36016" lon="6.16474">
        <ele>381.3</ele>
        <time>2025-03-24T13:22:31Z</time>
      </trkpt>
      <trkpt lat="43.36016" lon="6.16486">
        <ele>380.5</ele>
        <time>2025-03-24T13:22:43Z</time>
      </trkpt>
      <trkpt lat="43.36013" lon="6.165">
        <ele>378.6</ele>
        <time>2025-03-24T13:22:59Z</time>
      </trkpt>
      <trkpt lat="43.36014" lon="6.16512">
        <ele>377.4</ele>
        <time>2025-03-24T13:23:17Z</time>
      </trkpt>
      <trkpt lat="43.3601" lon="6.16524">
        <ele>376.5</ele>
        <time>2025-03-24T13:23:39Z</time>
      </trkpt>
      <trkpt lat="43.36009" lon="6.16537">
        <ele>375.6</ele>
        <time>2025-03-24T13:23:52Z</time>
      </trkpt>
      <trkpt lat="43.36007" lon="6.16549">
        <ele>375.1</ele>
        <time>2025-03-24T13:24:03Z</time>
      </trkpt>
      <trkpt lat="43.36005" lon="6.16561">
        <ele>374.6</ele>
        <time>2025-03-24T13:24:14Z</time>
      </trkpt>
      <trkpt lat="43.36003" lon="6.16573">
        <ele>374</ele>
        <time>2025-03-24T13:24:25Z</time>
      </trkpt>
      <trkpt lat="43.36" lon="6.16586">
        <ele>373.6</ele>
        <time>2025-03-24T13:24:36Z</time>
      </trkpt>
      <trkpt lat="43.35997" lon="6.16598">
        <ele>373.2</ele>
        <time>2025-03-24T13:24:46Z</time>
      </trkpt>
      <trkpt lat="43.35994" lon="6.16611">
        <ele>372.8</ele>
        <time>2025-03-24T13:24:57Z</time>
      </trkpt>
      <trkpt lat="43.3599" lon="6.16623">
        <ele>371.8</ele>
        <time>2025-03-24T13:26:00Z</time>
      </trkpt>
      <trkpt lat="43.35983" lon="6.1663">
        <ele>371.3</ele>
        <time>2025-03-24T13:27:07Z</time>
      </trkpt>
      <trkpt lat="43.3598" lon="6.16642">
        <ele>370.3</ele>
        <time>2025-03-24T13:29:35Z</time>
      </trkpt>
      <trkpt lat="43.35972" lon="6.16649">
        <ele>369.4</ele>
        <time>2025-03-24T13:30:24Z</time>
      </trkpt>
      <trkpt lat="43.35965" lon="6.16657">
        <ele>368.4</ele>
        <time>2025-03-24T13:31:43Z</time>
      </trkpt>
      <trkpt lat="43.35958" lon="6.16666">
        <ele>367.4</ele>
        <time>2025-03-24T13:31:57Z</time>
      </trkpt>
      <trkpt lat="43.35951" lon="6.16673">
        <ele>366</ele>
        <time>2025-03-24T13:32:10Z</time>
      </trkpt>
      <trkpt lat="43.35944" lon="6.16682">
        <ele>365</ele>
        <time>2025-03-24T13:32:20Z</time>
      </trkpt>
      <trkpt lat="43.35936" lon="6.1669">
        <ele>364.1</ele>
        <time>2025-03-24T13:32:33Z</time>
      </trkpt>
      <trkpt lat="43.35929" lon="6.16699">
        <ele>363.1</ele>
        <time>2025-03-24T13:32:43Z</time>
      </trkpt>
      <trkpt lat="43.35921" lon="6.16707">
        <ele>362</ele>
        <time>2025-03-24T13:32:53Z</time>
      </trkpt>
      <trkpt lat="43.35914" lon="6.16715">
        <ele>361.3</ele>
        <time>2025-03-24T13:33:02Z</time>
      </trkpt>
      <trkpt lat="43.35906" lon="6.16723">
        <ele>360.1</ele>
        <time>2025-03-24T13:33:14Z</time>
      </trkpt>
      <trkpt lat="43.35898" lon="6.1673">
        <ele>358.9</ele>
        <time>2025-03-24T13:33:25Z</time>
      </trkpt>
      <trkpt lat="43.35891" lon="6.16739">
        <ele>358</ele>
        <time>2025-03-24T13:33:37Z</time>
      </trkpt>
      <trkpt lat="43.35885" lon="6.16749">
        <ele>356.9</ele>
        <time>2025-03-24T13:33:51Z</time>
      </trkpt>
      <trkpt lat="43.35878" lon="6.16758">
        <ele>355.8</ele>
        <time>2025-03-24T13:34:05Z</time>
      </trkpt>
      <trkpt lat="43.3587" lon="6.16766">
        <ele>354.9</ele>
        <time>2025-03-24T13:34:17Z</time>
      </trkpt>
      <trkpt lat="43.35861" lon="6.1677">
        <ele>354.4</ele>
        <time>2025-03-24T13:34:30Z</time>
      </trkpt>
      <trkpt lat="43.35853" lon="6.16776">
        <ele>354.3</ele>
        <time>2025-03-24T13:34:39Z</time>
      </trkpt>
      <trkpt lat="43.35845" lon="6.16782">
        <ele>354</ele>
        <time>2025-03-24T13:34:48Z</time>
      </trkpt>
      <trkpt lat="43.35836" lon="6.16788">
        <ele>353.3</ele>
        <time>2025-03-24T13:35:01Z</time>
      </trkpt>
      <trkpt lat="43.35827" lon="6.16792">
        <ele>351.7</ele>
        <time>2025-03-24T13:35:16Z</time>
      </trkpt>
      <trkpt lat="43.35818" lon="6.16791">
        <ele>350.9</ele>
        <time>2025-03-24T13:35:27Z</time>
      </trkpt>
      <trkpt lat="43.35809" lon="6.1679">
        <ele>350.2</ele>
        <time>2025-03-24T13:35:38Z</time>
      </trkpt>
      <trkpt lat="43.358" lon="6.16793">
        <ele>349.3</ele>
        <time>2025-03-24T13:35:51Z</time>
      </trkpt>
      <trkpt lat="43.35792" lon="6.16799">
        <ele>348.3</ele>
        <time>2025-03-24T13:36:06Z</time>
      </trkpt>
      <trkpt lat="43.35783" lon="6.16805">
        <ele>346.9</ele>
        <time>2025-03-24T13:36:25Z</time>
      </trkpt>
      <trkpt lat="43.35775" lon="6.16811">
        <ele>346.1</ele>
        <time>2025-03-24T13:36:36Z</time>
      </trkpt>
      <trkpt lat="43.35767" lon="6.16819">
        <ele>345.3</ele>
        <time>2025-03-24T13:36:46Z</time>
      </trkpt>
      <trkpt lat="43.3576" lon="6.16829">
        <ele>344.9</ele>
        <time>2025-03-24T13:36:55Z</time>
      </trkpt>
      <trkpt lat="43.35754" lon="6.16839">
        <ele>344.2</ele>
        <time>2025-03-24T13:37:07Z</time>
      </trkpt>
      <trkpt lat="43.35749" lon="6.1685">
        <ele>343.7</ele>
        <time>2025-03-24T13:37:18Z</time>
      </trkpt>
      <trkpt lat="43.35747" lon="6.16862">
        <ele>343.3</ele>
        <time>2025-03-24T13:37:30Z</time>
      </trkpt>
      <trkpt lat="43.35745" lon="6.16875">
        <ele>342.7</ele>
        <time>2025-03-24T13:37:52Z</time>
      </trkpt>
      <trkpt lat="43.35741" lon="6.16886">
        <ele>342.2</ele>
        <time>2025-03-24T13:38:06Z</time>
      </trkpt>
      <trkpt lat="43.35735" lon="6.16896">
        <ele>342.2</ele>
        <time>2025-03-24T13:38:18Z</time>
      </trkpt>
      <trkpt lat="43.35727" lon="6.16903">
        <ele>341.6</ele>
        <time>2025-03-24T13:38:33Z</time>
      </trkpt>
      <trkpt lat="43.35718" lon="6.16902">
        <ele>341.2</ele>
        <time>2025-03-24T13:38:46Z</time>
      </trkpt>
      <trkpt lat="43.35709" lon="6.16904">
        <ele>340.5</ele>
        <time>2025-03-24T13:38:56Z</time>
      </trkpt>
      <trkpt lat="43.35699" lon="6.16905">
        <ele>339.9</ele>
        <time>2025-03-24T13:39:07Z</time>
      </trkpt>
      <trkpt lat="43.3569" lon="6.16904">
        <ele>339</ele>
        <time>2025-03-24T13:39:18Z</time>
      </trkpt>
      <trkpt lat="43.3568" lon="6.16906">
        <ele>337.9</ele>
        <time>2025-03-24T13:39:29Z</time>
      </trkpt>
      <trkpt lat="43.3567" lon="6.16907">
        <ele>337.1</ele>
        <time>2025-03-24T13:39:40Z</time>
      </trkpt>
      <trkpt lat="43.35665" lon="6.16918">
        <ele>335.7</ele>
        <time>2025-03-24T13:42:50Z</time>
      </trkpt>
      <trkpt lat="43.35658" lon="6.16925">
        <ele>335.9</ele>
        <time>2025-03-24T13:43:59Z</time>
      </trkpt>
      <trkpt lat="43.35649" lon="6.1693">
        <ele>334.8</ele>
        <time>2025-03-24T13:44:17Z</time>
      </trkpt>
      <trkpt lat="43.35641" lon="6.16936">
        <ele>333.9</ele>
        <time>2025-03-24T13:45:05Z</time>
      </trkpt>
      <trkpt lat="43.35637" lon="6.16947">
        <ele>333</ele>
        <time>2025-03-24T13:45:33Z</time>
      </trkpt>
      <trkpt lat="43.35631" lon="6.16957">
        <ele>331.8</ele>
        <time>2025-03-24T13:45:47Z</time>
      </trkpt>
      <trkpt lat="43.35624" lon="6.16965">
        <ele>330.8</ele>
        <time>2025-03-24T13:46:04Z</time>
      </trkpt>
      <trkpt lat="43.35619" lon="6.16975">
        <ele>329.9</ele>
        <time>2025-03-24T13:46:18Z</time>
      </trkpt>
      <trkpt lat="43.35612" lon="6.16985">
        <ele>329.2</ele>
        <time>2025-03-24T13:46:28Z</time>
      </trkpt>
      <trkpt lat="43.35604" lon="6.16991">
        <ele>328.4</ele>
        <time>2025-03-24T13:46:39Z</time>
      </trkpt>
      <trkpt lat="43.35596" lon="6.17">
        <ele>327.5</ele>
        <time>2025-03-24T13:46:51Z</time>
      </trkpt>
      <trkpt lat="43.3559" lon="6.17009">
        <ele>326.5</ele>
        <time>2025-03-24T13:47:05Z</time>
      </trkpt>
      <trkpt lat="43.35583" lon="6.17017">
        <ele>325.6</ele>
        <time>2025-03-24T13:47:15Z</time>
      </trkpt>
      <trkpt lat="43.35578" lon="6.17028">
        <ele>324.6</ele>
        <time>2025-03-24T13:47:24Z</time>
      </trkpt>
      <trkpt lat="43.35571" lon="6.17037">
        <ele>323.7</ele>
        <time>2025-03-24T13:47:39Z</time>
      </trkpt>
      <trkpt lat="43.35564" lon="6.17045">
        <ele>322.4</ele>
        <time>2025-03-24T13:47:55Z</time>
      </trkpt>
      <trkpt lat="43.35558" lon="6.17054">
        <ele>321.1</ele>
        <time>2025-03-24T13:48:11Z</time>
      </trkpt>
      <trkpt lat="43.35551" lon="6.17062">
        <ele>319.3</ele>
        <time>2025-03-24T13:48:24Z</time>
      </trkpt>
      <trkpt lat="43.35546" lon="6.17073">
        <ele>318.3</ele>
        <time>2025-03-24T13:48:34Z</time>
      </trkpt>
      <trkpt lat="43.35539" lon="6.17083">
        <ele>316.8</ele>
        <time>2025-03-24T13:48:47Z</time>
      </trkpt>
      <trkpt lat="43.35533" lon="6.17092">
        <ele>315.9</ele>
        <time>2025-03-24T13:48:55Z</time>
      </trkpt>
      <trkpt lat="43.35527" lon="6.17102">
        <ele>314.8</ele>
        <time>2025-03-24T13:49:08Z</time>
      </trkpt>
      <trkpt lat="43.35523" lon="6.17114">
        <ele>313.8</ele>
        <time>2025-03-24T13:49:19Z</time>
      </trkpt>
      <trkpt lat="43.35518" lon="6.17125">
        <ele>312.6</ele>
        <time>2025-03-24T13:49:30Z</time>
      </trkpt>
      <trkpt lat="43.35516" lon="6.17137">
        <ele>311</ele>
        <time>2025-03-24T13:49:48Z</time>
      </trkpt>
      <trkpt lat="43.35515" lon="6.1715">
        <ele>310.5</ele>
        <time>2025-03-24T13:50:13Z</time>
      </trkpt>
      <trkpt lat="43.35516" lon="6.17163">
        <ele>308.7</ele>
        <time>2025-03-24T13:50:33Z</time>
      </trkpt>
      <trkpt lat="43.35508" lon="6.17167">
        <ele>307</ele>
        <time>2025-03-24T13:50:48Z</time>
      </trkpt>
      <trkpt lat="43.35501" lon="6.17159">
        <ele>305.6</ele>
        <time>2025-03-24T13:51:04Z</time>
      </trkpt>
      <trkpt lat="43.35494" lon="6.17151">
        <ele>305</ele>
        <time>2025-03-24T13:51:18Z</time>
      </trkpt>
      <trkpt lat="43.35493" lon="6.17137">
        <ele>303.9</ele>
        <time>2025-03-24T13:51:30Z</time>
      </trkpt>
      <trkpt lat="43.35492" lon="6.17125">
        <ele>302.7</ele>
        <time>2025-03-24T13:51:44Z</time>
      </trkpt>
      <trkpt lat="43.35491" lon="6.17112">
        <ele>302.2</ele>
        <time>2025-03-24T13:51:55Z</time>
      </trkpt>
      <trkpt lat="43.35491" lon="6.17099">
        <ele>301.7</ele>
        <time>2025-03-24T13:52:06Z</time>
      </trkpt>
      <trkpt lat="43.35492" lon="6.17086">
        <ele>300.7</ele>
        <time>2025-03-24T13:52:22Z</time>
      </trkpt>
      <trkpt lat="43.3549" lon="6.17073">
        <ele>299.8</ele>
        <time>2025-03-24T13:52:35Z</time>
      </trkpt>
      <trkpt lat="43.35482" lon="6.17078">
        <ele>297.2</ele>
        <time>2025-03-24T13:52:57Z</time>
      </trkpt>
      <trkpt lat="43.35476" lon="6.17089">
        <ele>296</ele>
        <time>2025-03-24T13:53:09Z</time>
      </trkpt>
      <trkpt lat="43.35471" lon="6.171">
        <ele>294.9</ele>
        <time>2025-03-24T13:53:19Z</time>
      </trkpt>
      <trkpt lat="43.35467" lon="6.17111">
        <ele>293.2</ele>
        <time>2025-03-24T13:53:35Z</time>
      </trkpt>
      <trkpt lat="43.35462" lon="6.17122">
        <ele>292.7</ele>
        <time>2025-03-24T13:54:00Z</time>
      </trkpt>
      <trkpt lat="43.35454" lon="6.17116">
        <ele>290.2</ele>
        <time>2025-03-24T13:54:38Z</time>
      </trkpt>
      <trkpt lat="43.35455" lon="6.17103">
        <ele>289.2</ele>
        <time>2025-03-24T13:55:01Z</time>
      </trkpt>
      <trkpt lat="43.35456" lon="6.1709">
        <ele>288</ele>
        <time>2025-03-24T13:55:17Z</time>
      </trkpt>
      <trkpt lat="43.35456" lon="6.17077">
        <ele>287</ele>
        <time>2025-03-24T13:55:33Z</time>
      </trkpt>
      <trkpt lat="43.35455" lon="6.17064">
        <ele>286.2</ele>
        <time>2025-03-24T13:55:45Z</time>
      </trkpt>
      <trkpt lat="43.35453" lon="6.17051">
        <ele>285.7</ele>
        <time>2025-03-24T13:55:57Z</time>
      </trkpt>
      <trkpt lat="43.35452" lon="6.17038">
        <ele>285.1</ele>
        <time>2025-03-24T13:56:08Z</time>
      </trkpt>
      <trkpt lat="43.3545" lon="6.17026">
        <ele>284.4</ele>
        <time>2025-03-24T13:56:18Z</time>
      </trkpt>
      <trkpt lat="43.35447" lon="6.17013">
        <ele>283.8</ele>
        <time>2025-03-24T13:56:28Z</time>
      </trkpt>
      <trkpt lat="43.35442" lon="6.17003">
        <ele>282.8</ele>
        <time>2025-03-24T13:56:46Z</time>
      </trkpt>
      <trkpt lat="43.35432" lon="6.17001">
        <ele>281.4</ele>
        <time>2025-03-24T13:59:08Z</time>
      </trkpt>
      <trkpt lat="43.35423" lon="6.17003">
        <ele>279.7</ele>
        <time>2025-03-24T13:59:23Z</time>
      </trkpt>
      <trkpt lat="43.35414" lon="6.17004">
        <ele>278.6</ele>
        <time>2025-03-24T13:59:37Z</time>
      </trkpt>
      <trkpt lat="43.35404" lon="6.17004">
        <ele>277.2</ele>
        <time>2025-03-24T13:59:51Z</time>
      </trkpt>
      <trkpt lat="43.35396" lon="6.17008">
        <ele>276.1</ele>
        <time>2025-03-24T14:00:02Z</time>
      </trkpt>
      <trkpt lat="43.35387" lon="6.17012">
        <ele>275.4</ele>
        <time>2025-03-24T14:00:12Z</time>
      </trkpt>
      <trkpt lat="43.35379" lon="6.17018">
        <ele>274.4</ele>
        <time>2025-03-24T14:00:24Z</time>
      </trkpt>
      <trkpt lat="43.35372" lon="6.17027">
        <ele>273.7</ele>
        <time>2025-03-24T14:00:37Z</time>
      </trkpt>
      <trkpt lat="43.35366" lon="6.17036">
        <ele>273</ele>
        <time>2025-03-24T14:00:48Z</time>
      </trkpt>
      <trkpt lat="43.35358" lon="6.17044">
        <ele>272.4</ele>
        <time>2025-03-24T14:00:58Z</time>
      </trkpt>
      <trkpt lat="43.35351" lon="6.17051">
        <ele>271.6</ele>
        <time>2025-03-24T14:01:17Z</time>
      </trkpt>
      <trkpt lat="43.35344" lon="6.17059">
        <ele>271.2</ele>
        <time>2025-03-24T14:01:29Z</time>
      </trkpt>
      <trkpt lat="43.35337" lon="6.17067">
        <ele>270.6</ele>
        <time>2025-03-24T14:01:42Z</time>
      </trkpt>
      <trkpt lat="43.35344" lon="6.17058">
        <ele>271</ele>
        <time>2025-03-24T14:02:46Z</time>
      </trkpt>
      <trkpt lat="43.35337" lon="6.17068">
        <ele>270.5</ele>
        <time>2025-03-24T14:04:00Z</time>
      </trkpt>
      <trkpt lat="43.3533" lon="6.17077">
        <ele>269.5</ele>
        <time>2025-03-24T14:04:13Z</time>
      </trkpt>
      <trkpt lat="43.35327" lon="6.17089">
        <ele>269</ele>
        <time>2025-03-24T14:04:28Z</time>
      </trkpt>
      <trkpt lat="43.35323" lon="6.17101">
        <ele>268.6</ele>
        <time>2025-03-24T14:04:39Z</time>
      </trkpt>
      <trkpt lat="43.35318" lon="6.17111">
        <ele>267.3</ele>
        <time>2025-03-24T14:04:54Z</time>
      </trkpt>
      <trkpt lat="43.35314" lon="6.17123">
        <ele>266.9</ele>
        <time>2025-03-24T14:06:10Z</time>
      </trkpt>
      <trkpt lat="43.35309" lon="6.17133">
        <ele>266</ele>
        <time>2025-03-24T14:07:09Z</time>
      </trkpt>
      <trkpt lat="43.35302" lon="6.17142">
        <ele>265.4</ele>
        <time>2025-03-24T14:07:22Z</time>
      </trkpt>
      <trkpt lat="43.35296" lon="6.17151">
        <ele>264.8</ele>
        <time>2025-03-24T14:07:33Z</time>
      </trkpt>
      <trkpt lat="43.3529" lon="6.17162">
        <ele>264.3</ele>
        <time>2025-03-24T14:07:43Z</time>
      </trkpt>
      <trkpt lat="43.35283" lon="6.17171">
        <ele>263.7</ele>
        <time>2025-03-24T14:07:54Z</time>
      </trkpt>
      <trkpt lat="43.35276" lon="6.1718">
        <ele>263.1</ele>
        <time>2025-03-24T14:08:04Z</time>
      </trkpt>
      <trkpt lat="43.35267" lon="6.17187">
        <ele>262.6</ele>
        <time>2025-03-24T14:08:14Z</time>
      </trkpt>
      <trkpt lat="43.3526" lon="6.17194">
        <ele>261.8</ele>
        <time>2025-03-24T14:08:23Z</time>
      </trkpt>
      <trkpt lat="43.35252" lon="6.17203">
        <ele>261.2</ele>
        <time>2025-03-24T14:08:33Z</time>
      </trkpt>
      <trkpt lat="43.35246" lon="6.17213">
        <ele>261</ele>
        <time>2025-03-24T14:08:42Z</time>
      </trkpt>
      <trkpt lat="43.3524" lon="6.17223">
        <ele>260.1</ele>
        <time>2025-03-24T14:08:51Z</time>
      </trkpt>
      <trkpt lat="43.35235" lon="6.17235">
        <ele>259.2</ele>
        <time>2025-03-24T14:09:01Z</time>
      </trkpt>
      <trkpt lat="43.35231" lon="6.17247">
        <ele>259.6</ele>
        <time>2025-03-24T14:09:10Z</time>
      </trkpt>
      <trkpt lat="43.35229" lon="6.17259">
        <ele>259.8</ele>
        <time>2025-03-24T14:09:19Z</time>
      </trkpt>
      <trkpt lat="43.35228" lon="6.17271">
        <ele>259.6</ele>
        <time>2025-03-24T14:09:29Z</time>
      </trkpt>
      <trkpt lat="43.35226" lon="6.17283">
        <ele>259</ele>
        <time>2025-03-24T14:09:40Z</time>
      </trkpt>
      <trkpt lat="43.35224" lon="6.17296">
        <ele>258.4</ele>
        <time>2025-03-24T14:09:50Z</time>
      </trkpt>
      <trkpt lat="43.35221" lon="6.17308">
        <ele>257.7</ele>
        <time>2025-03-24T14:09:59Z</time>
      </trkpt>
      <trkpt lat="43.35218" lon="6.17321">
        <ele>256.9</ele>
        <time>2025-03-24T14:10:08Z</time>
      </trkpt>
      <trkpt lat="43.35215" lon="6.17333">
        <ele>256.5</ele>
        <time>2025-03-24T14:10:18Z</time>
      </trkpt>
      <trkpt lat="43.3521" lon="6.17343">
        <ele>256</ele>
        <time>2025-03-24T14:10:28Z</time>
      </trkpt>
      <trkpt lat="43.35201" lon="6.17349">
        <ele>255</ele>
        <time>2025-03-24T14:10:41Z</time>
      </trkpt>
      <trkpt lat="43.35193" lon="6.17354">
        <ele>254.2</ele>
        <time>2025-03-24T14:10:53Z</time>
      </trkpt>
      <trkpt lat="43.35184" lon="6.17353">
        <ele>253.6</ele>
        <time>2025-03-24T14:11:03Z</time>
      </trkpt>
      <trkpt lat="43.35174" lon="6.17352">
        <ele>252.9</ele>
        <time>2025-03-24T14:11:14Z</time>
      </trkpt>
      <trkpt lat="43.35165" lon="6.17352">
        <ele>252.6</ele>
        <time>2025-03-24T14:11:42Z</time>
      </trkpt>
      <trkpt lat="43.35156" lon="6.17352">
        <ele>252.1</ele>
        <time>2025-03-24T14:11:55Z</time>
      </trkpt>
      <trkpt lat="43.35147" lon="6.17352">
        <ele>251.4</ele>
        <time>2025-03-24T14:12:06Z</time>
      </trkpt>
      <trkpt lat="43.35137" lon="6.17349">
        <ele>250.9</ele>
        <time>2025-03-24T14:12:25Z</time>
      </trkpt>
      <trkpt lat="43.35128" lon="6.17351">
        <ele>250.4</ele>
        <time>2025-03-24T14:12:38Z</time>
      </trkpt>
      <trkpt lat="43.35118" lon="6.17351">
        <ele>249.7</ele>
        <time>2025-03-24T14:12:48Z</time>
      </trkpt>
      <trkpt lat="43.35109" lon="6.17352">
        <ele>248.3</ele>
        <time>2025-03-24T14:13:00Z</time>
      </trkpt>
      <trkpt lat="43.35099" lon="6.17355">
        <ele>247.8</ele>
        <time>2025-03-24T14:13:11Z</time>
      </trkpt>
      <trkpt lat="43.35091" lon="6.1736">
        <ele>247.2</ele>
        <time>2025-03-24T14:13:29Z</time>
      </trkpt>
      <trkpt lat="43.35082" lon="6.17362">
        <ele>246.7</ele>
        <time>2025-03-24T14:13:47Z</time>
      </trkpt>
      <trkpt lat="43.35073" lon="6.17368">
        <ele>246.5</ele>
        <time>2025-03-24T14:13:59Z</time>
      </trkpt>
      <trkpt lat="43.35065" lon="6.17375">
        <ele>246.4</ele>
        <time>2025-03-24T14:14:14Z</time>
      </trkpt>
      <trkpt lat="43.35056" lon="6.17379">
        <ele>246.2</ele>
        <time>2025-03-24T14:14:24Z</time>
      </trkpt>
      <trkpt lat="43.35047" lon="6.17381">
        <ele>246</ele>
        <time>2025-03-24T14:14:38Z</time>
      </trkpt>
      <trkpt lat="43.35046" lon="6.17394">
        <ele>245.6</ele>
        <time>2025-03-24T14:14:52Z</time>
      </trkpt>
      <trkpt lat="43.35049" lon="6.17407">
        <ele>245.2</ele>
        <time>2025-03-24T14:15:04Z</time>
      </trkpt>
      <trkpt lat="43.35055" lon="6.17417">
        <ele>244.4</ele>
        <time>2025-03-24T14:15:19Z</time>
      </trkpt>
      <trkpt lat="43.35064" lon="6.17418">
        <ele>243.5</ele>
        <time>2025-03-24T14:15:32Z</time>
      </trkpt>
      <trkpt lat="43.35065" lon="6.17431">
        <ele>241.8</ele>
        <time>2025-03-24T14:15:47Z</time>
      </trkpt>
      <trkpt lat="43.35066" lon="6.17444">
        <ele>240.5</ele>
        <time>2025-03-24T14:16:14Z</time>
      </trkpt>
      <trkpt lat="43.35063" lon="6.17455">
        <ele>240</ele>
        <time>2025-03-24T14:17:02Z</time>
      </trkpt>
      <trkpt lat="43.35059" lon="6.17466">
        <ele>239.7</ele>
        <time>2025-03-24T14:17:20Z</time>
      </trkpt>
      <trkpt lat="43.35053" lon="6.17477">
        <ele>239.5</ele>
        <time>2025-03-24T14:17:52Z</time>
      </trkpt>
      <trkpt lat="43.35047" lon="6.17487">
        <ele>239.7</ele>
        <time>2025-03-24T14:18:03Z</time>
      </trkpt>
      <trkpt lat="43.35043" lon="6.17498">
        <ele>239.7</ele>
        <time>2025-03-24T14:18:13Z</time>
      </trkpt>
      <trkpt lat="43.35038" lon="6.17509">
        <ele>240</ele>
        <time>2025-03-24T14:18:27Z</time>
      </trkpt>
      <trkpt lat="43.35037" lon="6.17521">
        <ele>239.8</ele>
        <time>2025-03-24T14:18:43Z</time>
      </trkpt>
      <trkpt lat="43.35034" lon="6.17533">
        <ele>239.9</ele>
        <time>2025-03-24T14:18:58Z</time>
      </trkpt>
      <trkpt lat="43.35034" lon="6.17546">
        <ele>240.2</ele>
        <time>2025-03-24T14:19:11Z</time>
      </trkpt>
      <trkpt lat="43.35035" lon="6.1756">
        <ele>240.1</ele>
        <time>2025-03-24T14:19:43Z</time>
      </trkpt>
      <trkpt lat="43.35034" lon="6.17572">
        <ele>239.6</ele>
        <time>2025-03-24T14:19:59Z</time>
      </trkpt>
      <trkpt lat="43.35037" lon="6.17584">
        <ele>239.6</ele>
        <time>2025-03-24T14:20:10Z</time>
      </trkpt>
      <trkpt lat="43.35039" lon="6.17596">
        <ele>239.6</ele>
        <time>2025-03-24T14:20:21Z</time>
      </trkpt>
      <trkpt lat="43.35043" lon="6.17608">
        <ele>239.6</ele>
        <time>2025-03-24T14:20:32Z</time>
      </trkpt>
      <trkpt lat="43.35048" lon="6.17619">
        <ele>239.6</ele>
        <time>2025-03-24T14:20:43Z</time>
      </trkpt>
      <trkpt lat="43.35053" lon="6.1763">
        <ele>239.6</ele>
        <time>2025-03-24T14:20:54Z</time>
      </trkpt>
      <trkpt lat="43.3506" lon="6.17639">
        <ele>239.6</ele>
        <time>2025-03-24T14:21:05Z</time>
      </trkpt>
      <trkpt lat="43.35066" lon="6.17649">
        <ele>239.5</ele>
        <time>2025-03-24T14:21:17Z</time>
      </trkpt>
      <trkpt lat="43.35073" lon="6.17658">
        <ele>239.5</ele>
        <time>2025-03-24T14:21:27Z</time>
      </trkpt>
      <trkpt lat="43.3508" lon="6.17665">
        <ele>239.5</ele>
        <time>2025-03-24T14:21:53Z</time>
      </trkpt>
      <trkpt lat="43.35079" lon="6.17678">
        <ele>239.2</ele>
        <time>2025-03-24T14:22:05Z</time>
      </trkpt>
      <trkpt lat="43.35082" lon="6.1769">
        <ele>239.2</ele>
        <time>2025-03-24T14:22:15Z</time>
      </trkpt>
      <trkpt lat="43.35085" lon="6.17702">
        <ele>239.3</ele>
        <time>2025-03-24T14:22:24Z</time>
      </trkpt>
      <trkpt lat="43.35086" lon="6.17716">
        <ele>239.3</ele>
        <time>2025-03-24T14:22:33Z</time>
      </trkpt>
      <trkpt lat="43.35089" lon="6.17729">
        <ele>239.3</ele>
        <time>2025-03-24T14:22:43Z</time>
      </trkpt>
      <trkpt lat="43.35094" lon="6.17739">
        <ele>239.3</ele>
        <time>2025-03-24T14:22:59Z</time>
      </trkpt>
      <trkpt lat="43.35094" lon="6.17752">
        <ele>239.4</ele>
        <time>2025-03-24T14:23:23Z</time>
      </trkpt>
      <trkpt lat="43.35099" lon="6.17763">
        <ele>239.4</ele>
        <time>2025-03-24T14:23:35Z</time>
      </trkpt>
      <trkpt lat="43.35106" lon="6.17772">
        <ele>239.6</ele>
        <time>2025-03-24T14:23:47Z</time>
      </trkpt>
      <trkpt lat="43.3511" lon="6.17783">
        <ele>239.8</ele>
        <time>2025-03-24T14:24:15Z</time>
      </trkpt>
      <trkpt lat="43.35109" lon="6.17796">
        <ele>240</ele>
        <time>2025-03-24T14:24:28Z</time>
      </trkpt>
      <trkpt lat="43.35105" lon="6.17808">
        <ele>240</ele>
        <time>2025-03-24T14:24:40Z</time>
      </trkpt>
      <trkpt lat="43.35098" lon="6.17817">
        <ele>240</ele>
        <time>2025-03-24T14:24:55Z</time>
      </trkpt>
      <trkpt lat="43.35089" lon="6.17822">
        <ele>239.9</ele>
        <time>2025-03-24T14:25:04Z</time>
      </trkpt>
      <trkpt lat="43.35081" lon="6.17828">
        <ele>239.9</ele>
        <time>2025-03-24T14:25:15Z</time>
      </trkpt>
      <trkpt lat="43.35072" lon="6.17833">
        <ele>240.3</ele>
        <time>2025-03-24T14:25:42Z</time>
      </trkpt>
      <trkpt lat="43.35065" lon="6.17841">
        <ele>240.4</ele>
        <time>2025-03-24T14:25:53Z</time>
      </trkpt>
      <trkpt lat="43.35056" lon="6.17846">
        <ele>240.4</ele>
        <time>2025-03-24T14:26:04Z</time>
      </trkpt>
      <trkpt lat="43.35047" lon="6.17844">
        <ele>240.4</ele>
        <time>2025-03-24T14:26:14Z</time>
      </trkpt>
      <trkpt lat="43.35037" lon="6.17841">
        <ele>240.5</ele>
        <time>2025-03-24T14:26:25Z</time>
      </trkpt>
      <trkpt lat="43.35029" lon="6.17837">
        <ele>240.2</ele>
        <time>2025-03-24T14:28:48Z</time>
      </trkpt>
      <trkpt lat="43.3502" lon="6.17836">
        <ele>240.7</ele>
        <time>2025-03-24T14:33:21Z</time>
      </trkpt>
      <trkpt lat="43.35011" lon="6.17833">
        <ele>240.7</ele>
        <time>2025-03-24T14:33:39Z</time>
      </trkpt>
      <trkpt lat="43.35002" lon="6.17832">
        <ele>241.1</ele>
        <time>2025-03-24T14:35:12Z</time>
      </trkpt>
      <trkpt lat="43.34992" lon="6.1783">
        <ele>241.4</ele>
        <time>2025-03-24T14:35:24Z</time>
      </trkpt>
      <trkpt lat="43.34984" lon="6.17825">
        <ele>241.5</ele>
        <time>2025-03-24T14:35:34Z</time>
      </trkpt>
      <trkpt lat="43.34974" lon="6.17824">
        <ele>241.6</ele>
        <time>2025-03-24T14:35:47Z</time>
      </trkpt>
      <trkpt lat="43.34965" lon="6.17822">
        <ele>241.7</ele>
        <time>2025-03-24T14:35:58Z</time>
      </trkpt>
      <trkpt lat="43.34964" lon="6.17809">
        <ele>241.9</ele>
        <time>2025-03-24T14:36:31Z</time>
      </trkpt>
      <trkpt lat="43.34962" lon="6.17796">
        <ele>241.9</ele>
        <time>2025-03-24T14:36:46Z</time>
      </trkpt>
      <trkpt lat="43.34959" lon="6.17784">
        <ele>241.6</ele>
        <time>2025-03-24T14:36:54Z</time>
      </trkpt>
      <trkpt lat="43.34957" lon="6.17772">
        <ele>241.6</ele>
        <time>2025-03-24T14:37:02Z</time>
      </trkpt>
      <trkpt lat="43.34955" lon="6.17758">
        <ele>241.6</ele>
        <time>2025-03-24T14:37:12Z</time>
      </trkpt>
      <trkpt lat="43.34955" lon="6.17746">
        <ele>241.5</ele>
        <time>2025-03-24T14:37:21Z</time>
      </trkpt>
      <trkpt lat="43.34956" lon="6.17733">
        <ele>241.7</ele>
        <time>2025-03-24T14:37:31Z</time>
      </trkpt>
      <trkpt lat="43.34956" lon="6.1772">
        <ele>241.9</ele>
        <time>2025-03-24T14:37:53Z</time>
      </trkpt>
      <trkpt lat="43.34955" lon="6.17707">
        <ele>241.8</ele>
        <time>2025-03-24T14:38:05Z</time>
      </trkpt>
      <trkpt lat="43.34953" lon="6.17695">
        <ele>241.8</ele>
        <time>2025-03-24T14:38:24Z</time>
      </trkpt>
      <trkpt lat="43.34947" lon="6.17686">
        <ele>241.9</ele>
        <time>2025-03-24T14:39:58Z</time>
      </trkpt>
      <trkpt lat="43.34938" lon="6.17685">
        <ele>241.5</ele>
        <time>2025-03-24T14:40:21Z</time>
      </trkpt>
      <trkpt lat="43.34929" lon="6.17683">
        <ele>241.8</ele>
        <time>2025-03-24T14:41:35Z</time>
      </trkpt>
      <trkpt lat="43.34919" lon="6.17683">
        <ele>241.5</ele>
        <time>2025-03-24T14:41:50Z</time>
      </trkpt>
      <trkpt lat="43.34911" lon="6.17688">
        <ele>241.3</ele>
        <time>2025-03-24T14:42:05Z</time>
      </trkpt>
      <trkpt lat="43.34902" lon="6.17692">
        <ele>241.3</ele>
        <time>2025-03-24T14:42:23Z</time>
      </trkpt>
      <trkpt lat="43.34896" lon="6.17701">
        <ele>241.3</ele>
        <time>2025-03-24T14:42:36Z</time>
      </trkpt>
      <trkpt lat="43.34891" lon="6.17713">
        <ele>241.4</ele>
        <time>2025-03-24T14:42:45Z</time>
      </trkpt>
      <trkpt lat="43.34883" lon="6.17719">
        <ele>241.6</ele>
        <time>2025-03-24T14:43:02Z</time>
      </trkpt>
      <trkpt lat="43.34874" lon="6.17724">
        <ele>241.4</ele>
        <time>2025-03-24T14:43:35Z</time>
      </trkpt>
      <trkpt lat="43.34865" lon="6.1773">
        <ele>241.4</ele>
        <time>2025-03-24T14:43:54Z</time>
      </trkpt>
      <trkpt lat="43.34857" lon="6.17737">
        <ele>241.4</ele>
        <time>2025-03-24T14:44:05Z</time>
      </trkpt>
      <trkpt lat="43.34848" lon="6.17741">
        <ele>241.2</ele>
        <time>2025-03-24T14:44:17Z</time>
      </trkpt>
      <trkpt lat="43.34839" lon="6.17745">
        <ele>241.3</ele>
        <time>2025-03-24T14:44:30Z</time>
      </trkpt>
      <trkpt lat="43.34848" lon="6.17748">
        <ele>241.1</ele>
        <time>2025-03-24T14:45:33Z</time>
      </trkpt>
      <trkpt lat="43.34856" lon="6.17743">
        <ele>241.3</ele>
        <time>2025-03-24T14:45:47Z</time>
      </trkpt>
      <trkpt lat="43.34864" lon="6.17737">
        <ele>241.4</ele>
        <time>2025-03-24T14:46:01Z</time>
      </trkpt>
      <trkpt lat="43.34873" lon="6.17732">
        <ele>241.4</ele>
        <time>2025-03-24T14:46:15Z</time>
      </trkpt>
      <trkpt lat="43.34882" lon="6.17726">
        <ele>241.6</ele>
        <time>2025-03-24T14:46:26Z</time>
      </trkpt>
      <trkpt lat="43.3489" lon="6.1772">
        <ele>241.3</ele>
        <time>2025-03-24T14:46:52Z</time>
      </trkpt>
      <trkpt lat="43.34896" lon="6.17711">
        <ele>241</ele>
        <time>2025-03-24T14:47:06Z</time>
      </trkpt>
      <trkpt lat="43.349" lon="6.177">
        <ele>241</ele>
        <time>2025-03-24T14:47:25Z</time>
      </trkpt>
      <trkpt lat="43.34908" lon="6.17697">
        <ele>241.1</ele>
        <time>2025-03-24T14:47:57Z</time>
      </trkpt>
      <trkpt lat="43.34916" lon="6.17689">
        <ele>241.3</ele>
        <time>2025-03-24T14:48:32Z</time>
      </trkpt>
      <trkpt lat="43.34925" lon="6.17687">
        <ele>241.4</ele>
        <time>2025-03-24T14:48:47Z</time>
      </trkpt>
      <trkpt lat="43.34933" lon="6.17683">
        <ele>241.4</ele>
        <time>2025-03-24T14:49:05Z</time>
      </trkpt>
      <trkpt lat="43.34942" lon="6.17678">
        <ele>241.6</ele>
        <time>2025-03-24T14:49:29Z</time>
      </trkpt>
      <trkpt lat="43.34951" lon="6.17681">
        <ele>241.6</ele>
        <time>2025-03-24T14:49:47Z</time>
      </trkpt>
      <trkpt lat="43.34956" lon="6.17668">
        <ele>241.7</ele>
        <time>2025-03-24T14:50:21Z</time>
      </trkpt>
      <trkpt lat="43.34963" lon="6.17654">
        <ele>241.5</ele>
        <time>2025-03-24T14:50:39Z</time>
      </trkpt>
      <trkpt lat="43.34954" lon="6.17658">
        <ele>241.5</ele>
        <time>2025-03-24T14:51:38Z</time>
      </trkpt>
      <trkpt lat="43.34944" lon="6.17662">
        <ele>241</ele>
        <time>2025-03-24T14:51:46Z</time>
      </trkpt>
      <trkpt lat="43.3495" lon="6.17652">
        <ele>241.4</ele>
        <time>2025-03-24T14:51:57Z</time>
      </trkpt>
      <trkpt lat="43.34955" lon="6.17641">
        <ele>241.4</ele>
        <time>2025-03-24T14:52:12Z</time>
      </trkpt>
      <trkpt lat="43.34962" lon="6.17633">
        <ele>241.4</ele>
        <time>2025-03-24T14:52:37Z</time>
      </trkpt>
      <trkpt lat="43.34971" lon="6.17635">
        <ele>241.4</ele>
        <time>2025-03-24T14:54:48Z</time>
      </trkpt>
      <trkpt lat="43.3498" lon="6.1764">
        <ele>241.5</ele>
        <time>2025-03-24T14:54:59Z</time>
      </trkpt>
      <trkpt lat="43.34989" lon="6.17642">
        <ele>242</ele>
        <time>2025-03-24T14:55:11Z</time>
      </trkpt>
      <trkpt lat="43.34999" lon="6.17641">
        <ele>243.6</ele>
        <time>2025-03-24T14:55:44Z</time>
      </trkpt>
      <trkpt lat="43.35002" lon="6.17629">
        <ele>244.1</ele>
        <time>2025-03-24T14:56:14Z</time>
      </trkpt>
      <trkpt lat="43.35006" lon="6.17618">
        <ele>245.4</ele>
        <time>2025-03-24T14:57:10Z</time>
      </trkpt>
      <trkpt lat="43.3501" lon="6.17607">
        <ele>246</ele>
        <time>2025-03-24T14:58:26Z</time>
      </trkpt>
      <trkpt lat="43.35019" lon="6.17611">
        <ele>246</ele>
        <time>2025-03-24T14:58:43Z</time>
      </trkpt>
      <trkpt lat="43.35012" lon="6.17601">
        <ele>245.9</ele>
        <time>2025-03-24T14:59:16Z</time>
      </trkpt>
      <trkpt lat="43.35008" lon="6.17612">
        <ele>245.5</ele>
        <time>2025-03-24T15:00:24Z</time>
      </trkpt>
      <trkpt lat="43.35005" lon="6.17624">
        <ele>244.7</ele>
        <time>2025-03-24T15:01:29Z</time>
      </trkpt>
      <trkpt lat="43.35008" lon="6.17635">
        <ele>244.1</ele>
        <time>2025-03-24T15:03:26Z</time>
      </trkpt>
      <trkpt lat="43.35007" lon="6.17648">
        <ele>243.6</ele>
        <time>2025-03-24T15:04:29Z</time>
      </trkpt>
      <trkpt lat="43.35003" lon="6.17659">
        <ele>243.2</ele>
        <time>2025-03-24T15:04:58Z</time>
      </trkpt>
      <trkpt lat="43.35006" lon="6.17672">
        <ele>243.1</ele>
        <time>2025-03-24T15:05:09Z</time>
      </trkpt>
      <trkpt lat="43.35003" lon="6.17683">
        <ele>243.1</ele>
        <time>2025-03-24T15:05:48Z</time>
      </trkpt>
      <trkpt lat="43.34994" lon="6.17689">
        <ele>243.4</ele>
        <time>2025-03-24T15:06:39Z</time>
      </trkpt>
      <trkpt lat="43.34995" lon="6.17701">
        <ele>242.8</ele>
        <time>2025-03-24T15:07:00Z</time>
      </trkpt>
      <trkpt lat="43.34985" lon="6.177">
        <ele>242.9</ele>
        <time>2025-03-24T15:07:39Z</time>
      </trkpt>
      <trkpt lat="43.34977" lon="6.17703">
        <ele>242.9</ele>
        <time>2025-03-24T15:07:53Z</time>
      </trkpt>
      <trkpt lat="43.34967" lon="6.17704">
        <ele>242.5</ele>
        <time>2025-03-24T15:08:05Z</time>
      </trkpt>
      <trkpt lat="43.34962" lon="6.17715">
        <ele>242.6</ele>
        <time>2025-03-24T15:08:31Z</time>
      </trkpt>
      <trkpt lat="43.34959" lon="6.17727">
        <ele>242.6</ele>
        <time>2025-03-24T15:08:50Z</time>
      </trkpt>
      <trkpt lat="43.34961" lon="6.1774">
        <ele>242.7</ele>
        <time>2025-03-24T15:09:11Z</time>
      </trkpt>
      <trkpt lat="43.34966" lon="6.17751">
        <ele>243.2</ele>
        <time>2025-03-24T15:09:38Z</time>
      </trkpt>
      <trkpt lat="43.34964" lon="6.17763">
        <ele>243.1</ele>
        <time>2025-03-24T15:09:50Z</time>
      </trkpt>
      <trkpt lat="43.34962" lon="6.17776">
        <ele>243.2</ele>
        <time>2025-03-24T15:10:00Z</time>
      </trkpt>
      <trkpt lat="43.34959" lon="6.17789">
        <ele>243.2</ele>
        <time>2025-03-24T15:10:10Z</time>
      </trkpt>
      <trkpt lat="43.3496" lon="6.17801">
        <ele>243.3</ele>
        <time>2025-03-24T15:10:25Z</time>
      </trkpt>
      <trkpt lat="43.34959" lon="6.17814">
        <ele>243.4</ele>
        <time>2025-03-24T15:10:34Z</time>
      </trkpt>
      <trkpt lat="43.34966" lon="6.17822">
        <ele>243.5</ele>
        <time>2025-03-24T15:11:07Z</time>
      </trkpt>
      <trkpt lat="43.34975" lon="6.17825">
        <ele>243.8</ele>
        <time>2025-03-24T15:11:29Z</time>
      </trkpt>
      <trkpt lat="43.34984" lon="6.17826">
        <ele>243.6</ele>
        <time>2025-03-24T15:12:07Z</time>
      </trkpt>
      <trkpt lat="43.34993" lon="6.1783">
        <ele>243.7</ele>
        <time>2025-03-24T15:12:23Z</time>
      </trkpt>
      <trkpt lat="43.35002" lon="6.17834">
        <ele>243.6</ele>
        <time>2025-03-24T15:12:32Z</time>
      </trkpt>
      <trkpt lat="43.35011" lon="6.17837">
        <ele>243.6</ele>
        <time>2025-03-24T15:12:41Z</time>
      </trkpt>
      <trkpt lat="43.3502" lon="6.17841">
        <ele>243.8</ele>
        <time>2025-03-24T15:12:51Z</time>
      </trkpt>
      <trkpt lat="43.35028" lon="6.17836">
        <ele>244.2</ele>
        <time>2025-03-24T15:13:44Z</time>
      </trkpt>
      <trkpt lat="43.3503" lon="6.1783">
        <ele>247.3</ele>
        <time>2025-03-24T15:18:49Z</time>
      </trkpt>
    </trkseg>
  </trk>
</gpx>